<?xml version="1.0" encoding="UTF-8" standalone="no" ?>
<gpx xmlns="http://www.topografix.com/GPX/1/1" xmlns:xsi="http://www.w3.org/2001/XMLSchema-instance" xsi:schemaLocation="http://www.topografix.com/GPX/1/1 http://www.topografix.com/GPX/1/1/gpx.xsd" version="1.1" creator="VisuGPX - https://www.visugpx.com">
  <metadata>
    <name>course 7 04</name>
    <desc><![CDATA[course 7 avril]]></desc>
  </metadata>
  <trk>
    <name><![CDATA[2013-04-07T15:07:32Z]]></name>
    <trkseg>
      <trkpt lat="43.62003" lon="7.07921">
        <ele>136.6446533</ele>
        <time>2013-04-07T15:07:37Z</time>
      </trkpt>
      <trkpt lat="43.62004" lon="7.07901">
        <ele>136.1639404</ele>
        <time>2013-04-07T15:07:43Z</time>
      </trkpt>
      <trkpt lat="43.62003" lon="7.07885">
        <ele>136.1639404</ele>
        <time>2013-04-07T15:07:48Z</time>
      </trkpt>
      <trkpt lat="43.62002" lon="7.07876">
        <ele>135.6831055</ele>
        <time>2013-04-07T15:07:51Z</time>
      </trkpt>
      <trkpt lat="43.61993" lon="7.07856">
        <ele>135.6831055</ele>
        <time>2013-04-07T15:07:57Z</time>
      </trkpt>
      <trkpt lat="43.61982" lon="7.07838">
        <ele>133.760498</ele>
        <time>2013-04-07T15:08:03Z</time>
      </trkpt>
      <trkpt lat="43.61972" lon="7.07824">
        <ele>132.7993164</ele>
        <time>2013-04-07T15:08:08Z</time>
      </trkpt>
      <trkpt lat="43.61964" lon="7.07809">
        <ele>131.8378906</ele>
        <time>2013-04-07T15:08:13Z</time>
      </trkpt>
      <trkpt lat="43.61953" lon="7.07793">
        <ele>131.3572998</ele>
        <time>2013-04-07T15:08:19Z</time>
      </trkpt>
      <trkpt lat="43.61944" lon="7.07778">
        <ele>130.3959961</ele>
        <time>2013-04-07T15:08:24Z</time>
      </trkpt>
      <trkpt lat="43.61935" lon="7.07764">
        <ele>128.9541016</ele>
        <time>2013-04-07T15:08:29Z</time>
      </trkpt>
      <trkpt lat="43.61923" lon="7.07745">
        <ele>128.4733887</ele>
        <time>2013-04-07T15:08:36Z</time>
      </trkpt>
      <trkpt lat="43.61912" lon="7.07727">
        <ele>129.4346924</ele>
        <time>2013-04-07T15:08:42Z</time>
      </trkpt>
      <trkpt lat="43.61902" lon="7.07711">
        <ele>129.4346924</ele>
        <time>2013-04-07T15:08:48Z</time>
      </trkpt>
      <trkpt lat="43.61892" lon="7.07698">
        <ele>128.9541016</ele>
        <time>2013-04-07T15:08:53Z</time>
      </trkpt>
      <trkpt lat="43.6188" lon="7.07686">
        <ele>129.9152832</ele>
        <time>2013-04-07T15:08:59Z</time>
      </trkpt>
      <trkpt lat="43.61868" lon="7.07678">
        <ele>130.3959961</ele>
        <time>2013-04-07T15:09:04Z</time>
      </trkpt>
      <trkpt lat="43.61858" lon="7.07673">
        <ele>130.3959961</ele>
        <time>2013-04-07T15:09:08Z</time>
      </trkpt>
      <trkpt lat="43.61843" lon="7.07666">
        <ele>131.8378906</ele>
        <time>2013-04-07T15:09:14Z</time>
      </trkpt>
      <trkpt lat="43.61833" lon="7.07663">
        <ele>132.3186035</ele>
        <time>2013-04-07T15:09:18Z</time>
      </trkpt>
      <trkpt lat="43.61823" lon="7.0766">
        <ele>132.3186035</ele>
        <time>2013-04-07T15:09:22Z</time>
      </trkpt>
      <trkpt lat="43.6181" lon="7.07655">
        <ele>131.8378906</ele>
        <time>2013-04-07T15:09:27Z</time>
      </trkpt>
      <trkpt lat="43.61798" lon="7.07649">
        <ele>130.876709</ele>
        <time>2013-04-07T15:09:32Z</time>
      </trkpt>
      <trkpt lat="43.61782" lon="7.07644">
        <ele>129.9152832</ele>
        <time>2013-04-07T15:09:38Z</time>
      </trkpt>
      <trkpt lat="43.61771" lon="7.07639">
        <ele>127.9925537</ele>
        <time>2013-04-07T15:09:43Z</time>
      </trkpt>
      <trkpt lat="43.61758" lon="7.07634">
        <ele>126.5506592</ele>
        <time>2013-04-07T15:09:48Z</time>
      </trkpt>
      <trkpt lat="43.61745" lon="7.0763">
        <ele>125.5893555</ele>
        <time>2013-04-07T15:09:53Z</time>
      </trkpt>
      <trkpt lat="43.61731" lon="7.07632">
        <ele>125.5893555</ele>
        <time>2013-04-07T15:09:59Z</time>
      </trkpt>
      <trkpt lat="43.61729" lon="7.07633">
        <ele>125.5893555</ele>
        <time>2013-04-07T15:10:00Z</time>
      </trkpt>
      <trkpt lat="43.61714" lon="7.07641">
        <ele>126.5506592</ele>
        <time>2013-04-07T15:10:06Z</time>
      </trkpt>
      <trkpt lat="43.61705" lon="7.07653">
        <ele>125.5893555</ele>
        <time>2013-04-07T15:10:11Z</time>
      </trkpt>
      <trkpt lat="43.617" lon="7.07661">
        <ele>125.1087646</ele>
        <time>2013-04-07T15:10:14Z</time>
      </trkpt>
      <trkpt lat="43.61698" lon="7.07653">
        <ele>124.6280518</ele>
        <time>2013-04-07T15:10:18Z</time>
      </trkpt>
      <trkpt lat="43.61705" lon="7.07633">
        <ele>122.7054443</ele>
        <time>2013-04-07T15:10:24Z</time>
      </trkpt>
      <trkpt lat="43.61713" lon="7.0762">
        <ele>120.7828369</ele>
        <time>2013-04-07T15:10:29Z</time>
      </trkpt>
      <trkpt lat="43.61717" lon="7.07615">
        <ele>119.8214111</ele>
        <time>2013-04-07T15:10:31Z</time>
      </trkpt>
      <trkpt lat="43.61731" lon="7.07606">
        <ele>117.8988037</ele>
        <time>2013-04-07T15:10:37Z</time>
      </trkpt>
      <trkpt lat="43.61747" lon="7.07594">
        <ele>117.4182129</ele>
        <time>2013-04-07T15:10:44Z</time>
      </trkpt>
      <trkpt lat="43.61754" lon="7.07591">
        <ele>116.9375</ele>
        <time>2013-04-07T15:10:47Z</time>
      </trkpt>
      <trkpt lat="43.61756" lon="7.07575">
        <ele>116.9375</ele>
        <time>2013-04-07T15:10:52Z</time>
      </trkpt>
      <trkpt lat="43.61759" lon="7.07559">
        <ele>116.4567871</ele>
        <time>2013-04-07T15:10:57Z</time>
      </trkpt>
      <trkpt lat="43.61751" lon="7.07552">
        <ele>116.4567871</ele>
        <time>2013-04-07T15:11:01Z</time>
      </trkpt>
      <trkpt lat="43.61734" lon="7.07552">
        <ele>115.9761963</ele>
        <time>2013-04-07T15:11:07Z</time>
      </trkpt>
      <trkpt lat="43.61722" lon="7.07556">
        <ele>116.9375</ele>
        <time>2013-04-07T15:11:12Z</time>
      </trkpt>
      <trkpt lat="43.61713" lon="7.07558">
        <ele>118.3793945</ele>
        <time>2013-04-07T15:11:16Z</time>
      </trkpt>
      <trkpt lat="43.61707" lon="7.07548">
        <ele>118.8601074</ele>
        <time>2013-04-07T15:11:20Z</time>
      </trkpt>
      <trkpt lat="43.61699" lon="7.07527">
        <ele>118.8601074</ele>
        <time>2013-04-07T15:11:27Z</time>
      </trkpt>
      <trkpt lat="43.61699" lon="7.07513">
        <ele>117.8988037</ele>
        <time>2013-04-07T15:11:31Z</time>
      </trkpt>
      <trkpt lat="43.61704" lon="7.07495">
        <ele>116.9375</ele>
        <time>2013-04-07T15:11:36Z</time>
      </trkpt>
      <trkpt lat="43.61711" lon="7.0748">
        <ele>116.4567871</ele>
        <time>2013-04-07T15:11:41Z</time>
      </trkpt>
      <trkpt lat="43.61715" lon="7.07477">
        <ele>115.0148926</ele>
        <time>2013-04-07T15:11:43Z</time>
      </trkpt>
      <trkpt lat="43.61726" lon="7.07468">
        <ele>114.5341797</ele>
        <time>2013-04-07T15:11:48Z</time>
      </trkpt>
      <trkpt lat="43.61731" lon="7.0746">
        <ele>113.572998</ele>
        <time>2013-04-07T15:11:51Z</time>
      </trkpt>
      <trkpt lat="43.61737" lon="7.07448">
        <ele>113.572998</ele>
        <time>2013-04-07T15:11:55Z</time>
      </trkpt>
      <trkpt lat="43.6174" lon="7.07439">
        <ele>115.0148926</ele>
        <time>2013-04-07T15:11:58Z</time>
      </trkpt>
      <trkpt lat="43.61741" lon="7.07425">
        <ele>115.9761963</ele>
        <time>2013-04-07T15:12:02Z</time>
      </trkpt>
      <trkpt lat="43.6174" lon="7.07409">
        <ele>117.4182129</ele>
        <time>2013-04-07T15:12:06Z</time>
      </trkpt>
      <trkpt lat="43.61739" lon="7.07395">
        <ele>117.4182129</ele>
        <time>2013-04-07T15:12:10Z</time>
      </trkpt>
      <trkpt lat="43.61734" lon="7.07378">
        <ele>117.8988037</ele>
        <time>2013-04-07T15:12:15Z</time>
      </trkpt>
      <trkpt lat="43.6173" lon="7.07369">
        <ele>117.8988037</ele>
        <time>2013-04-07T15:12:18Z</time>
      </trkpt>
      <trkpt lat="43.61723" lon="7.07349">
        <ele>119.3408203</ele>
        <time>2013-04-07T15:12:24Z</time>
      </trkpt>
      <trkpt lat="43.61724" lon="7.07332">
        <ele>119.3408203</ele>
        <time>2013-04-07T15:12:29Z</time>
      </trkpt>
      <trkpt lat="43.61728" lon="7.07314">
        <ele>120.302124</ele>
        <time>2013-04-07T15:12:34Z</time>
      </trkpt>
      <trkpt lat="43.61733" lon="7.07295">
        <ele>122.2247314</ele>
        <time>2013-04-07T15:12:40Z</time>
      </trkpt>
      <trkpt lat="43.61737" lon="7.07279">
        <ele>123.666748</ele>
        <time>2013-04-07T15:12:45Z</time>
      </trkpt>
      <trkpt lat="43.61738" lon="7.07273">
        <ele>124.1473389</ele>
        <time>2013-04-07T15:12:47Z</time>
      </trkpt>
      <trkpt lat="43.6174" lon="7.07262">
        <ele>124.6280518</ele>
        <time>2013-04-07T15:12:50Z</time>
      </trkpt>
      <trkpt lat="43.61746" lon="7.07253">
        <ele>125.1087646</ele>
        <time>2013-04-07T15:12:53Z</time>
      </trkpt>
      <trkpt lat="43.61751" lon="7.07231">
        <ele>125.1087646</ele>
        <time>2013-04-07T15:13:00Z</time>
      </trkpt>
      <trkpt lat="43.61756" lon="7.07217">
        <ele>126.5506592</ele>
        <time>2013-04-07T15:13:05Z</time>
      </trkpt>
      <trkpt lat="43.61762" lon="7.072">
        <ele>126.5506592</ele>
        <time>2013-04-07T15:13:10Z</time>
      </trkpt>
      <trkpt lat="43.61765" lon="7.07184">
        <ele>126.0699463</ele>
        <time>2013-04-07T15:13:15Z</time>
      </trkpt>
      <trkpt lat="43.61766" lon="7.07165">
        <ele>125.5893555</ele>
        <time>2013-04-07T15:13:21Z</time>
      </trkpt>
      <trkpt lat="43.61767" lon="7.07154">
        <ele>124.6280518</ele>
        <time>2013-04-07T15:13:24Z</time>
      </trkpt>
      <trkpt lat="43.61765" lon="7.07137">
        <ele>124.6280518</ele>
        <time>2013-04-07T15:13:29Z</time>
      </trkpt>
      <trkpt lat="43.61764" lon="7.07114">
        <ele>123.666748</ele>
        <time>2013-04-07T15:13:36Z</time>
      </trkpt>
      <trkpt lat="43.61763" lon="7.07095">
        <ele>123.666748</ele>
        <time>2013-04-07T15:13:41Z</time>
      </trkpt>
      <trkpt lat="43.61767" lon="7.07077">
        <ele>125.1087646</ele>
        <time>2013-04-07T15:13:46Z</time>
      </trkpt>
      <trkpt lat="43.61769" lon="7.07056">
        <ele>126.0699463</ele>
        <time>2013-04-07T15:13:52Z</time>
      </trkpt>
      <trkpt lat="43.6177" lon="7.07035">
        <ele>126.0699463</ele>
        <time>2013-04-07T15:13:58Z</time>
      </trkpt>
      <trkpt lat="43.61777" lon="7.07011">
        <ele>124.6280518</ele>
        <time>2013-04-07T15:14:05Z</time>
      </trkpt>
      <trkpt lat="43.61782" lon="7.06996">
        <ele>124.1473389</ele>
        <time>2013-04-07T15:14:10Z</time>
      </trkpt>
      <trkpt lat="43.61788" lon="7.06977">
        <ele>124.1473389</ele>
        <time>2013-04-07T15:14:16Z</time>
      </trkpt>
      <trkpt lat="43.61793" lon="7.0696">
        <ele>123.1861572</ele>
        <time>2013-04-07T15:14:21Z</time>
      </trkpt>
      <trkpt lat="43.61799" lon="7.0694">
        <ele>122.2247314</ele>
        <time>2013-04-07T15:14:27Z</time>
      </trkpt>
      <trkpt lat="43.61803" lon="7.06924">
        <ele>121.7441406</ele>
        <time>2013-04-07T15:14:32Z</time>
      </trkpt>
      <trkpt lat="43.61812" lon="7.06903">
        <ele>120.7828369</ele>
        <time>2013-04-07T15:14:39Z</time>
      </trkpt>
      <trkpt lat="43.61821" lon="7.06885">
        <ele>119.3408203</ele>
        <time>2013-04-07T15:14:45Z</time>
      </trkpt>
      <trkpt lat="43.6183" lon="7.06869">
        <ele>116.9375</ele>
        <time>2013-04-07T15:14:51Z</time>
      </trkpt>
      <trkpt lat="43.61839" lon="7.06852">
        <ele>115.9761963</ele>
        <time>2013-04-07T15:14:57Z</time>
      </trkpt>
      <trkpt lat="43.61849" lon="7.06837">
        <ele>115.4956055</ele>
        <time>2013-04-07T15:15:03Z</time>
      </trkpt>
      <trkpt lat="43.61856" lon="7.06821">
        <ele>114.5341797</ele>
        <time>2013-04-07T15:15:08Z</time>
      </trkpt>
      <trkpt lat="43.61863" lon="7.06808">
        <ele>113.572998</ele>
        <time>2013-04-07T15:15:13Z</time>
      </trkpt>
      <trkpt lat="43.61867" lon="7.06803">
        <ele>113.0922852</ele>
        <time>2013-04-07T15:15:15Z</time>
      </trkpt>
      <trkpt lat="43.61875" lon="7.06798">
        <ele>112.1309814</ele>
        <time>2013-04-07T15:15:18Z</time>
      </trkpt>
      <trkpt lat="43.61883" lon="7.06781">
        <ele>109.7276611</ele>
        <time>2013-04-07T15:15:24Z</time>
      </trkpt>
      <trkpt lat="43.61894" lon="7.06761">
        <ele>106.8436279</ele>
        <time>2013-04-07T15:15:31Z</time>
      </trkpt>
      <trkpt lat="43.61896" lon="7.06758">
        <ele>106.3630371</ele>
        <time>2013-04-07T15:15:32Z</time>
      </trkpt>
      <trkpt lat="43.61905" lon="7.06746">
        <ele>105.4017334</ele>
        <time>2013-04-07T15:15:37Z</time>
      </trkpt>
      <trkpt lat="43.61912" lon="7.06731">
        <ele>102.998291</ele>
        <time>2013-04-07T15:15:42Z</time>
      </trkpt>
      <trkpt lat="43.61915" lon="7.06725">
        <ele>102.998291</ele>
        <time>2013-04-07T15:15:44Z</time>
      </trkpt>
      <trkpt lat="43.6192" lon="7.06717">
        <ele>102.0371094</ele>
        <time>2013-04-07T15:15:47Z</time>
      </trkpt>
      <trkpt lat="43.61926" lon="7.06704">
        <ele>101.5563965</ele>
        <time>2013-04-07T15:15:51Z</time>
      </trkpt>
      <trkpt lat="43.61934" lon="7.06692">
        <ele>101.5563965</ele>
        <time>2013-04-07T15:15:56Z</time>
      </trkpt>
      <trkpt lat="43.61935" lon="7.06689">
        <ele>101.0756836</ele>
        <time>2013-04-07T15:15:57Z</time>
      </trkpt>
      <trkpt lat="43.61946" lon="7.06678">
        <ele>98.6724854</ele>
        <time>2013-04-07T15:16:02Z</time>
      </trkpt>
      <trkpt lat="43.61946" lon="7.06675">
        <ele>98.1918945</ele>
        <time>2013-04-07T15:16:03Z</time>
      </trkpt>
      <trkpt lat="43.61948" lon="7.0667">
        <ele>98.1918945</ele>
        <time>2013-04-07T15:16:05Z</time>
      </trkpt>
      <trkpt lat="43.61956" lon="7.06661">
        <ele>96.7498779</ele>
        <time>2013-04-07T15:16:09Z</time>
      </trkpt>
      <trkpt lat="43.61965" lon="7.06648">
        <ele>97.2304688</ele>
        <time>2013-04-07T15:16:14Z</time>
      </trkpt>
      <trkpt lat="43.61967" lon="7.06646">
        <ele>97.2304688</ele>
        <time>2013-04-07T15:16:15Z</time>
      </trkpt>
      <trkpt lat="43.61976" lon="7.06632">
        <ele>97.2304688</ele>
        <time>2013-04-07T15:16:20Z</time>
      </trkpt>
      <trkpt lat="43.61983" lon="7.06621">
        <ele>97.2304688</ele>
        <time>2013-04-07T15:16:24Z</time>
      </trkpt>
      <trkpt lat="43.6199" lon="7.06607">
        <ele>100.114502</ele>
        <time>2013-04-07T15:16:29Z</time>
      </trkpt>
      <trkpt lat="43.61998" lon="7.06593">
        <ele>102.0371094</ele>
        <time>2013-04-07T15:16:34Z</time>
      </trkpt>
      <trkpt lat="43.62005" lon="7.06582">
        <ele>103.9597168</ele>
        <time>2013-04-07T15:16:38Z</time>
      </trkpt>
      <trkpt lat="43.62017" lon="7.06562">
        <ele>104.9210205</ele>
        <time>2013-04-07T15:16:45Z</time>
      </trkpt>
      <trkpt lat="43.62026" lon="7.06549">
        <ele>105.4017334</ele>
        <time>2013-04-07T15:16:50Z</time>
      </trkpt>
      <trkpt lat="43.62034" lon="7.06536">
        <ele>105.8824463</ele>
        <time>2013-04-07T15:16:55Z</time>
      </trkpt>
      <trkpt lat="43.62044" lon="7.06521">
        <ele>105.4017334</ele>
        <time>2013-04-07T15:17:01Z</time>
      </trkpt>
      <trkpt lat="43.62046" lon="7.06518">
        <ele>105.4017334</ele>
        <time>2013-04-07T15:17:02Z</time>
      </trkpt>
      <trkpt lat="43.62047" lon="7.06513">
        <ele>106.3630371</ele>
        <time>2013-04-07T15:17:04Z</time>
      </trkpt>
      <trkpt lat="43.62057" lon="7.06497">
        <ele>106.3630371</ele>
        <time>2013-04-07T15:17:11Z</time>
      </trkpt>
      <trkpt lat="43.62067" lon="7.06482">
        <ele>104.9210205</ele>
        <time>2013-04-07T15:17:17Z</time>
      </trkpt>
      <trkpt lat="43.62077" lon="7.06467">
        <ele>103.9597168</ele>
        <time>2013-04-07T15:17:23Z</time>
      </trkpt>
      <trkpt lat="43.62083" lon="7.06455">
        <ele>103.4790039</ele>
        <time>2013-04-07T15:17:28Z</time>
      </trkpt>
      <trkpt lat="43.62087" lon="7.0644">
        <ele>104.4404297</ele>
        <time>2013-04-07T15:17:33Z</time>
      </trkpt>
      <trkpt lat="43.6209" lon="7.06429">
        <ele>105.8824463</ele>
        <time>2013-04-07T15:17:37Z</time>
      </trkpt>
      <trkpt lat="43.62097" lon="7.06414">
        <ele>107.3243408</ele>
        <time>2013-04-07T15:17:42Z</time>
      </trkpt>
      <trkpt lat="43.62106" lon="7.06402">
        <ele>109.7276611</ele>
        <time>2013-04-07T15:17:48Z</time>
      </trkpt>
      <trkpt lat="43.6211" lon="7.06393">
        <ele>109.7276611</ele>
        <time>2013-04-07T15:17:52Z</time>
      </trkpt>
      <trkpt lat="43.62116" lon="7.06376">
        <ele>109.2469482</ele>
        <time>2013-04-07T15:17:58Z</time>
      </trkpt>
      <trkpt lat="43.62119" lon="7.06371">
        <ele>109.2469482</ele>
        <time>2013-04-07T15:18:00Z</time>
      </trkpt>
      <trkpt lat="43.62116" lon="7.06358">
        <ele>109.7276611</ele>
        <time>2013-04-07T15:18:05Z</time>
      </trkpt>
      <trkpt lat="43.62115" lon="7.06353">
        <ele>110.208252</ele>
        <time>2013-04-07T15:18:07Z</time>
      </trkpt>
      <trkpt lat="43.62103" lon="7.0634">
        <ele>110.208252</ele>
        <time>2013-04-07T15:18:13Z</time>
      </trkpt>
      <trkpt lat="43.62093" lon="7.06332">
        <ele>111.1695557</ele>
        <time>2013-04-07T15:18:17Z</time>
      </trkpt>
      <trkpt lat="43.62089" lon="7.06323">
        <ele>110.208252</ele>
        <time>2013-04-07T15:18:20Z</time>
      </trkpt>
      <trkpt lat="43.62089" lon="7.06316">
        <ele>109.7276611</ele>
        <time>2013-04-07T15:18:22Z</time>
      </trkpt>
      <trkpt lat="43.62091" lon="7.06299">
        <ele>109.7276611</ele>
        <time>2013-04-07T15:18:27Z</time>
      </trkpt>
      <trkpt lat="43.62093" lon="7.06282">
        <ele>109.2469482</ele>
        <time>2013-04-07T15:18:32Z</time>
      </trkpt>
      <trkpt lat="43.62094" lon="7.06269">
        <ele>109.7276611</ele>
        <time>2013-04-07T15:18:36Z</time>
      </trkpt>
      <trkpt lat="43.62094" lon="7.06244">
        <ele>112.1309814</ele>
        <time>2013-04-07T15:18:43Z</time>
      </trkpt>
      <trkpt lat="43.62095" lon="7.06241">
        <ele>113.0922852</ele>
        <time>2013-04-07T15:18:44Z</time>
      </trkpt>
      <trkpt lat="43.62093" lon="7.06227">
        <ele>114.5341797</ele>
        <time>2013-04-07T15:18:48Z</time>
      </trkpt>
      <trkpt lat="43.62093" lon="7.06207">
        <ele>115.9761963</ele>
        <time>2013-04-07T15:18:54Z</time>
      </trkpt>
      <trkpt lat="43.62094" lon="7.06191">
        <ele>116.4567871</ele>
        <time>2013-04-07T15:18:59Z</time>
      </trkpt>
      <trkpt lat="43.62095" lon="7.06177">
        <ele>116.9375</ele>
        <time>2013-04-07T15:19:03Z</time>
      </trkpt>
      <trkpt lat="43.62098" lon="7.06157">
        <ele>115.9761963</ele>
        <time>2013-04-07T15:19:09Z</time>
      </trkpt>
      <trkpt lat="43.62101" lon="7.06141">
        <ele>114.5341797</ele>
        <time>2013-04-07T15:19:14Z</time>
      </trkpt>
      <trkpt lat="43.62102" lon="7.06123">
        <ele>115.0148926</ele>
        <time>2013-04-07T15:19:19Z</time>
      </trkpt>
      <trkpt lat="43.62103" lon="7.06106">
        <ele>115.9761963</ele>
        <time>2013-04-07T15:19:24Z</time>
      </trkpt>
      <trkpt lat="43.62102" lon="7.0609">
        <ele>115.9761963</ele>
        <time>2013-04-07T15:19:29Z</time>
      </trkpt>
      <trkpt lat="43.62104" lon="7.06075">
        <ele>116.4567871</ele>
        <time>2013-04-07T15:19:34Z</time>
      </trkpt>
      <trkpt lat="43.62104" lon="7.06059">
        <ele>117.4182129</ele>
        <time>2013-04-07T15:19:39Z</time>
      </trkpt>
      <trkpt lat="43.62108" lon="7.06041">
        <ele>117.8988037</ele>
        <time>2013-04-07T15:19:44Z</time>
      </trkpt>
      <trkpt lat="43.6211" lon="7.06023">
        <ele>118.3793945</ele>
        <time>2013-04-07T15:19:49Z</time>
      </trkpt>
      <trkpt lat="43.62113" lon="7.06006">
        <ele>114.5341797</ele>
        <time>2013-04-07T15:19:55Z</time>
      </trkpt>
      <trkpt lat="43.62117" lon="7.0599">
        <ele>112.6115723</ele>
        <time>2013-04-07T15:20:00Z</time>
      </trkpt>
      <trkpt lat="43.62121" lon="7.05974">
        <ele>112.6115723</ele>
        <time>2013-04-07T15:20:05Z</time>
      </trkpt>
      <trkpt lat="43.62126" lon="7.05953">
        <ele>114.0535889</ele>
        <time>2013-04-07T15:20:11Z</time>
      </trkpt>
      <trkpt lat="43.62133" lon="7.05933">
        <ele>115.0148926</ele>
        <time>2013-04-07T15:20:17Z</time>
      </trkpt>
      <trkpt lat="43.62142" lon="7.05917">
        <ele>115.0148926</ele>
        <time>2013-04-07T15:20:23Z</time>
      </trkpt>
      <trkpt lat="43.62153" lon="7.05896">
        <ele>115.9761963</ele>
        <time>2013-04-07T15:20:30Z</time>
      </trkpt>
      <trkpt lat="43.62164" lon="7.05883">
        <ele>112.6115723</ele>
        <time>2013-04-07T15:20:36Z</time>
      </trkpt>
      <trkpt lat="43.62167" lon="7.05878">
        <ele>113.0922852</ele>
        <time>2013-04-07T15:20:39Z</time>
      </trkpt>
      <trkpt lat="43.62169" lon="7.05866">
        <ele>115.9761963</ele>
        <time>2013-04-07T15:20:44Z</time>
      </trkpt>
      <trkpt lat="43.62167" lon="7.05857">
        <ele>116.4567871</ele>
        <time>2013-04-07T15:20:47Z</time>
      </trkpt>
      <trkpt lat="43.62162" lon="7.05842">
        <ele>115.4956055</ele>
        <time>2013-04-07T15:20:52Z</time>
      </trkpt>
      <trkpt lat="43.62162" lon="7.05835">
        <ele>115.4956055</ele>
        <time>2013-04-07T15:20:54Z</time>
      </trkpt>
      <trkpt lat="43.62166" lon="7.05807">
        <ele>115.4956055</ele>
        <time>2013-04-07T15:21:02Z</time>
      </trkpt>
      <trkpt lat="43.62168" lon="7.05787">
        <ele>115.0148926</ele>
        <time>2013-04-07T15:21:08Z</time>
      </trkpt>
      <trkpt lat="43.62171" lon="7.05772">
        <ele>115.0148926</ele>
        <time>2013-04-07T15:21:12Z</time>
      </trkpt>
      <trkpt lat="43.62175" lon="7.05758">
        <ele>114.0535889</ele>
        <time>2013-04-07T15:21:16Z</time>
      </trkpt>
      <trkpt lat="43.62181" lon="7.05742">
        <ele>113.0922852</ele>
        <time>2013-04-07T15:21:21Z</time>
      </trkpt>
      <trkpt lat="43.62185" lon="7.0573">
        <ele>112.1309814</ele>
        <time>2013-04-07T15:21:25Z</time>
      </trkpt>
      <trkpt lat="43.62191" lon="7.05718">
        <ele>111.1695557</ele>
        <time>2013-04-07T15:21:29Z</time>
      </trkpt>
      <trkpt lat="43.62196" lon="7.05699">
        <ele>109.7276611</ele>
        <time>2013-04-07T15:21:35Z</time>
      </trkpt>
      <trkpt lat="43.62198" lon="7.05687">
        <ele>109.2469482</ele>
        <time>2013-04-07T15:21:39Z</time>
      </trkpt>
      <trkpt lat="43.62199" lon="7.0567">
        <ele>110.208252</ele>
        <time>2013-04-07T15:21:44Z</time>
      </trkpt>
      <trkpt lat="43.62198" lon="7.05655">
        <ele>110.6888428</ele>
        <time>2013-04-07T15:21:48Z</time>
      </trkpt>
      <trkpt lat="43.62195" lon="7.05635">
        <ele>110.208252</ele>
        <time>2013-04-07T15:21:54Z</time>
      </trkpt>
      <trkpt lat="43.62191" lon="7.05617">
        <ele>109.2469482</ele>
        <time>2013-04-07T15:21:59Z</time>
      </trkpt>
      <trkpt lat="43.62184" lon="7.05601">
        <ele>110.208252</ele>
        <time>2013-04-07T15:22:04Z</time>
      </trkpt>
      <trkpt lat="43.62173" lon="7.05582">
        <ele>111.6502686</ele>
        <time>2013-04-07T15:22:10Z</time>
      </trkpt>
      <trkpt lat="43.62161" lon="7.05567">
        <ele>111.1695557</ele>
        <time>2013-04-07T15:22:16Z</time>
      </trkpt>
      <trkpt lat="43.62149" lon="7.05559">
        <ele>110.6888428</ele>
        <time>2013-04-07T15:22:21Z</time>
      </trkpt>
      <trkpt lat="43.62139" lon="7.05557">
        <ele>110.208252</ele>
        <time>2013-04-07T15:22:26Z</time>
      </trkpt>
      <trkpt lat="43.62127" lon="7.05559">
        <ele>108.2856445</ele>
        <time>2013-04-07T15:22:31Z</time>
      </trkpt>
      <trkpt lat="43.62114" lon="7.05564">
        <ele>108.2856445</ele>
        <time>2013-04-07T15:22:36Z</time>
      </trkpt>
      <trkpt lat="43.62103" lon="7.05568">
        <ele>108.7662354</ele>
        <time>2013-04-07T15:22:41Z</time>
      </trkpt>
      <trkpt lat="43.6209" lon="7.05568">
        <ele>109.7276611</ele>
        <time>2013-04-07T15:22:47Z</time>
      </trkpt>
      <trkpt lat="43.62088" lon="7.05568">
        <ele>109.7276611</ele>
        <time>2013-04-07T15:22:48Z</time>
      </trkpt>
      <trkpt lat="43.62071" lon="7.05572">
        <ele>109.7276611</ele>
        <time>2013-04-07T15:22:56Z</time>
      </trkpt>
      <trkpt lat="43.62069" lon="7.05572">
        <ele>109.2469482</ele>
        <time>2013-04-07T15:22:57Z</time>
      </trkpt>
      <trkpt lat="43.62066" lon="7.05572">
        <ele>108.2856445</ele>
        <time>2013-04-07T15:22:59Z</time>
      </trkpt>
      <trkpt lat="43.62061" lon="7.05559">
        <ele>108.7662354</ele>
        <time>2013-04-07T15:23:05Z</time>
      </trkpt>
      <trkpt lat="43.62056" lon="7.05543">
        <ele>110.208252</ele>
        <time>2013-04-07T15:23:10Z</time>
      </trkpt>
      <trkpt lat="43.62053" lon="7.05531">
        <ele>110.208252</ele>
        <time>2013-04-07T15:23:14Z</time>
      </trkpt>
      <trkpt lat="43.62049" lon="7.05514">
        <ele>109.7276611</ele>
        <time>2013-04-07T15:23:19Z</time>
      </trkpt>
      <trkpt lat="43.62046" lon="7.05492">
        <ele>110.6888428</ele>
        <time>2013-04-07T15:23:26Z</time>
      </trkpt>
      <trkpt lat="43.62047" lon="7.05479">
        <ele>109.2469482</ele>
        <time>2013-04-07T15:23:31Z</time>
      </trkpt>
      <trkpt lat="43.62048" lon="7.05474">
        <ele>108.2856445</ele>
        <time>2013-04-07T15:23:33Z</time>
      </trkpt>
      <trkpt lat="43.62048" lon="7.05461">
        <ele>109.2469482</ele>
        <time>2013-04-07T15:23:37Z</time>
      </trkpt>
      <trkpt lat="43.62047" lon="7.05439">
        <ele>111.6502686</ele>
        <time>2013-04-07T15:23:44Z</time>
      </trkpt>
      <trkpt lat="43.62045" lon="7.05423">
        <ele>112.6115723</ele>
        <time>2013-04-07T15:23:49Z</time>
      </trkpt>
      <trkpt lat="43.62042" lon="7.05407">
        <ele>113.572998</ele>
        <time>2013-04-07T15:23:54Z</time>
      </trkpt>
      <trkpt lat="43.62038" lon="7.05393">
        <ele>113.572998</ele>
        <time>2013-04-07T15:23:59Z</time>
      </trkpt>
      <trkpt lat="43.62037" lon="7.05378">
        <ele>114.5341797</ele>
        <time>2013-04-07T15:24:03Z</time>
      </trkpt>
      <trkpt lat="43.62036" lon="7.05363">
        <ele>115.9761963</ele>
        <time>2013-04-07T15:24:08Z</time>
      </trkpt>
      <trkpt lat="43.62035" lon="7.0536">
        <ele>116.4567871</ele>
        <time>2013-04-07T15:24:09Z</time>
      </trkpt>
      <trkpt lat="43.62033" lon="7.0534">
        <ele>118.3793945</ele>
        <time>2013-04-07T15:24:15Z</time>
      </trkpt>
      <trkpt lat="43.62031" lon="7.05323">
        <ele>120.302124</ele>
        <time>2013-04-07T15:24:21Z</time>
      </trkpt>
      <trkpt lat="43.62027" lon="7.05309">
        <ele>120.7828369</ele>
        <time>2013-04-07T15:24:26Z</time>
      </trkpt>
      <trkpt lat="43.62027" lon="7.05304">
        <ele>121.2635498</ele>
        <time>2013-04-07T15:24:28Z</time>
      </trkpt>
      <trkpt lat="43.62027" lon="7.0529">
        <ele>118.8601074</ele>
        <time>2013-04-07T15:24:32Z</time>
      </trkpt>
      <trkpt lat="43.62024" lon="7.0527">
        <ele>118.8601074</ele>
        <time>2013-04-07T15:24:38Z</time>
      </trkpt>
      <trkpt lat="43.62022" lon="7.0526">
        <ele>118.8601074</ele>
        <time>2013-04-07T15:24:41Z</time>
      </trkpt>
      <trkpt lat="43.6202" lon="7.05238">
        <ele>117.4182129</ele>
        <time>2013-04-07T15:24:48Z</time>
      </trkpt>
      <trkpt lat="43.62016" lon="7.05218">
        <ele>115.4956055</ele>
        <time>2013-04-07T15:24:53Z</time>
      </trkpt>
      <trkpt lat="43.62016" lon="7.052">
        <ele>115.4956055</ele>
        <time>2013-04-07T15:24:58Z</time>
      </trkpt>
      <trkpt lat="43.62019" lon="7.05185">
        <ele>114.5341797</ele>
        <time>2013-04-07T15:25:03Z</time>
      </trkpt>
      <trkpt lat="43.62024" lon="7.05173">
        <ele>113.572998</ele>
        <time>2013-04-07T15:25:07Z</time>
      </trkpt>
      <trkpt lat="43.6203" lon="7.05153">
        <ele>115.4956055</ele>
        <time>2013-04-07T15:25:13Z</time>
      </trkpt>
      <trkpt lat="43.62035" lon="7.05133">
        <ele>118.3793945</ele>
        <time>2013-04-07T15:25:19Z</time>
      </trkpt>
      <trkpt lat="43.62038" lon="7.05116">
        <ele>119.8214111</ele>
        <time>2013-04-07T15:25:24Z</time>
      </trkpt>
      <trkpt lat="43.6204" lon="7.05105">
        <ele>119.3408203</ele>
        <time>2013-04-07T15:25:28Z</time>
      </trkpt>
      <trkpt lat="43.62042" lon="7.05098">
        <ele>119.3408203</ele>
        <time>2013-04-07T15:25:30Z</time>
      </trkpt>
      <trkpt lat="43.62043" lon="7.05081">
        <ele>119.8214111</ele>
        <time>2013-04-07T15:25:35Z</time>
      </trkpt>
      <trkpt lat="43.62043" lon="7.05067">
        <ele>120.302124</ele>
        <time>2013-04-07T15:25:39Z</time>
      </trkpt>
      <trkpt lat="43.62046" lon="7.05057">
        <ele>119.8214111</ele>
        <time>2013-04-07T15:25:42Z</time>
      </trkpt>
      <trkpt lat="43.62046" lon="7.0504">
        <ele>120.7828369</ele>
        <time>2013-04-07T15:25:47Z</time>
      </trkpt>
      <trkpt lat="43.62048" lon="7.05023">
        <ele>119.8214111</ele>
        <time>2013-04-07T15:25:52Z</time>
      </trkpt>
      <trkpt lat="43.6205" lon="7.05006">
        <ele>119.8214111</ele>
        <time>2013-04-07T15:25:57Z</time>
      </trkpt>
      <trkpt lat="43.62056" lon="7.04996">
        <ele>119.8214111</ele>
        <time>2013-04-07T15:26:01Z</time>
      </trkpt>
      <trkpt lat="43.62068" lon="7.04987">
        <ele>119.8214111</ele>
        <time>2013-04-07T15:26:06Z</time>
      </trkpt>
      <trkpt lat="43.62075" lon="7.04979">
        <ele>119.8214111</ele>
        <time>2013-04-07T15:26:10Z</time>
      </trkpt>
      <trkpt lat="43.62085" lon="7.04972">
        <ele>118.8601074</ele>
        <time>2013-04-07T15:26:15Z</time>
      </trkpt>
      <trkpt lat="43.62081" lon="7.04955">
        <ele>120.302124</ele>
        <time>2013-04-07T15:26:20Z</time>
      </trkpt>
      <trkpt lat="43.62069" lon="7.04935">
        <ele>121.7441406</ele>
        <time>2013-04-07T15:26:27Z</time>
      </trkpt>
      <trkpt lat="43.6206" lon="7.04921">
        <ele>121.7441406</ele>
        <time>2013-04-07T15:26:32Z</time>
      </trkpt>
      <trkpt lat="43.62048" lon="7.04908">
        <ele>121.7441406</ele>
        <time>2013-04-07T15:26:38Z</time>
      </trkpt>
      <trkpt lat="43.62034" lon="7.049">
        <ele>121.2635498</ele>
        <time>2013-04-07T15:26:44Z</time>
      </trkpt>
      <trkpt lat="43.62023" lon="7.04896">
        <ele>121.2635498</ele>
        <time>2013-04-07T15:26:49Z</time>
      </trkpt>
      <trkpt lat="43.62012" lon="7.04888">
        <ele>122.2247314</ele>
        <time>2013-04-07T15:26:54Z</time>
      </trkpt>
      <trkpt lat="43.62001" lon="7.04885">
        <ele>121.7441406</ele>
        <time>2013-04-07T15:26:59Z</time>
      </trkpt>
      <trkpt lat="43.61987" lon="7.04885">
        <ele>121.2635498</ele>
        <time>2013-04-07T15:27:05Z</time>
      </trkpt>
      <trkpt lat="43.61972" lon="7.04882">
        <ele>119.8214111</ele>
        <time>2013-04-07T15:27:11Z</time>
      </trkpt>
      <trkpt lat="43.61958" lon="7.04884">
        <ele>122.2247314</ele>
        <time>2013-04-07T15:27:17Z</time>
      </trkpt>
      <trkpt lat="43.61946" lon="7.04882">
        <ele>122.2247314</ele>
        <time>2013-04-07T15:27:22Z</time>
      </trkpt>
      <trkpt lat="43.61935" lon="7.04874">
        <ele>122.2247314</ele>
        <time>2013-04-07T15:27:27Z</time>
      </trkpt>
      <trkpt lat="43.61927" lon="7.04862">
        <ele>121.2635498</ele>
        <time>2013-04-07T15:27:32Z</time>
      </trkpt>
      <trkpt lat="43.61917" lon="7.04845">
        <ele>122.2247314</ele>
        <time>2013-04-07T15:27:38Z</time>
      </trkpt>
      <trkpt lat="43.61908" lon="7.04833">
        <ele>122.7054443</ele>
        <time>2013-04-07T15:27:43Z</time>
      </trkpt>
      <trkpt lat="43.61898" lon="7.04823">
        <ele>122.7054443</ele>
        <time>2013-04-07T15:27:48Z</time>
      </trkpt>
      <trkpt lat="43.61891" lon="7.04809">
        <ele>123.666748</ele>
        <time>2013-04-07T15:27:53Z</time>
      </trkpt>
      <trkpt lat="43.61886" lon="7.04796">
        <ele>123.666748</ele>
        <time>2013-04-07T15:27:58Z</time>
      </trkpt>
      <trkpt lat="43.61883" lon="7.0478">
        <ele>125.1087646</ele>
        <time>2013-04-07T15:28:03Z</time>
      </trkpt>
      <trkpt lat="43.61882" lon="7.04767">
        <ele>125.5893555</ele>
        <time>2013-04-07T15:28:07Z</time>
      </trkpt>
      <trkpt lat="43.6187" lon="7.04757">
        <ele>127.0313721</ele>
        <time>2013-04-07T15:28:13Z</time>
      </trkpt>
      <trkpt lat="43.61866" lon="7.04752">
        <ele>127.9925537</ele>
        <time>2013-04-07T15:28:15Z</time>
      </trkpt>
      <trkpt lat="43.61858" lon="7.04737">
        <ele>129.4346924</ele>
        <time>2013-04-07T15:28:21Z</time>
      </trkpt>
      <trkpt lat="43.61849" lon="7.04719">
        <ele>131.3572998</ele>
        <time>2013-04-07T15:28:27Z</time>
      </trkpt>
      <trkpt lat="43.61841" lon="7.04702">
        <ele>130.3959961</ele>
        <time>2013-04-07T15:28:33Z</time>
      </trkpt>
      <trkpt lat="43.61836" lon="7.04688">
        <ele>128.9541016</ele>
        <time>2013-04-07T15:28:38Z</time>
      </trkpt>
      <trkpt lat="43.61828" lon="7.04672">
        <ele>127.9925537</ele>
        <time>2013-04-07T15:28:44Z</time>
      </trkpt>
      <trkpt lat="43.61822" lon="7.04658">
        <ele>128.4733887</ele>
        <time>2013-04-07T15:28:49Z</time>
      </trkpt>
      <trkpt lat="43.61817" lon="7.04644">
        <ele>128.4733887</ele>
        <time>2013-04-07T15:28:54Z</time>
      </trkpt>
      <trkpt lat="43.6181" lon="7.0463">
        <ele>128.4733887</ele>
        <time>2013-04-07T15:28:59Z</time>
      </trkpt>
      <trkpt lat="43.61802" lon="7.04616">
        <ele>127.5119629</ele>
        <time>2013-04-07T15:29:04Z</time>
      </trkpt>
      <trkpt lat="43.61795" lon="7.046">
        <ele>127.0313721</ele>
        <time>2013-04-07T15:29:09Z</time>
      </trkpt>
      <trkpt lat="43.61791" lon="7.04589">
        <ele>127.5119629</ele>
        <time>2013-04-07T15:29:13Z</time>
      </trkpt>
      <trkpt lat="43.61785" lon="7.04579">
        <ele>127.9925537</ele>
        <time>2013-04-07T15:29:17Z</time>
      </trkpt>
      <trkpt lat="43.61779" lon="7.04565">
        <ele>129.4346924</ele>
        <time>2013-04-07T15:29:22Z</time>
      </trkpt>
      <trkpt lat="43.61768" lon="7.04547">
        <ele>129.9152832</ele>
        <time>2013-04-07T15:29:29Z</time>
      </trkpt>
      <trkpt lat="43.61759" lon="7.04533">
        <ele>131.3572998</ele>
        <time>2013-04-07T15:29:34Z</time>
      </trkpt>
      <trkpt lat="43.61752" lon="7.04519">
        <ele>132.3186035</ele>
        <time>2013-04-07T15:29:39Z</time>
      </trkpt>
      <trkpt lat="43.61744" lon="7.04504">
        <ele>134.2412109</ele>
        <time>2013-04-07T15:29:44Z</time>
      </trkpt>
      <trkpt lat="43.61742" lon="7.045">
        <ele>135.2025146</ele>
        <time>2013-04-07T15:29:46Z</time>
      </trkpt>
      <trkpt lat="43.6173" lon="7.04486">
        <ele>132.7993164</ele>
        <time>2013-04-07T15:29:52Z</time>
      </trkpt>
      <trkpt lat="43.61723" lon="7.04478">
        <ele>133.760498</ele>
        <time>2013-04-07T15:29:56Z</time>
      </trkpt>
      <trkpt lat="43.61715" lon="7.04464">
        <ele>133.760498</ele>
        <time>2013-04-07T15:30:02Z</time>
      </trkpt>
      <trkpt lat="43.6171" lon="7.04451">
        <ele>130.3959961</ele>
        <time>2013-04-07T15:30:06Z</time>
      </trkpt>
      <trkpt lat="43.6171" lon="7.04433">
        <ele>126.0699463</ele>
        <time>2013-04-07T15:30:12Z</time>
      </trkpt>
      <trkpt lat="43.61709" lon="7.04418">
        <ele>125.1087646</ele>
        <time>2013-04-07T15:30:17Z</time>
      </trkpt>
      <trkpt lat="43.61707" lon="7.04403">
        <ele>127.0313721</ele>
        <time>2013-04-07T15:30:21Z</time>
      </trkpt>
      <trkpt lat="43.61699" lon="7.04381">
        <ele>127.5119629</ele>
        <time>2013-04-07T15:30:27Z</time>
      </trkpt>
      <trkpt lat="43.61688" lon="7.0436">
        <ele>127.0313721</ele>
        <time>2013-04-07T15:30:34Z</time>
      </trkpt>
      <trkpt lat="43.6168" lon="7.04345">
        <ele>127.5119629</ele>
        <time>2013-04-07T15:30:39Z</time>
      </trkpt>
      <trkpt lat="43.61669" lon="7.04324">
        <ele>127.5119629</ele>
        <time>2013-04-07T15:30:46Z</time>
      </trkpt>
      <trkpt lat="43.61661" lon="7.04309">
        <ele>127.9925537</ele>
        <time>2013-04-07T15:30:51Z</time>
      </trkpt>
      <trkpt lat="43.61653" lon="7.04294">
        <ele>129.4346924</ele>
        <time>2013-04-07T15:30:56Z</time>
      </trkpt>
      <trkpt lat="43.61647" lon="7.0428">
        <ele>131.3572998</ele>
        <time>2013-04-07T15:31:01Z</time>
      </trkpt>
      <trkpt lat="43.61642" lon="7.04264">
        <ele>132.7993164</ele>
        <time>2013-04-07T15:31:06Z</time>
      </trkpt>
      <trkpt lat="43.61638" lon="7.04248">
        <ele>133.2799072</ele>
        <time>2013-04-07T15:31:11Z</time>
      </trkpt>
      <trkpt lat="43.61642" lon="7.04236">
        <ele>133.2799072</ele>
        <time>2013-04-07T15:31:15Z</time>
      </trkpt>
      <trkpt lat="43.61647" lon="7.0423">
        <ele>134.2412109</ele>
        <time>2013-04-07T15:31:17Z</time>
      </trkpt>
      <trkpt lat="43.61656" lon="7.04212">
        <ele>134.7219238</ele>
        <time>2013-04-07T15:31:23Z</time>
      </trkpt>
      <trkpt lat="43.61657" lon="7.04209">
        <ele>134.7219238</ele>
        <time>2013-04-07T15:31:24Z</time>
      </trkpt>
      <trkpt lat="43.61653" lon="7.04197">
        <ele>134.2412109</ele>
        <time>2013-04-07T15:31:29Z</time>
      </trkpt>
      <trkpt lat="43.61644" lon="7.04185">
        <ele>134.2412109</ele>
        <time>2013-04-07T15:31:34Z</time>
      </trkpt>
      <trkpt lat="43.6164" lon="7.04181">
        <ele>133.760498</ele>
        <time>2013-04-07T15:31:36Z</time>
      </trkpt>
      <trkpt lat="43.61627" lon="7.04164">
        <ele>132.7993164</ele>
        <time>2013-04-07T15:31:43Z</time>
      </trkpt>
      <trkpt lat="43.61619" lon="7.04153">
        <ele>131.8378906</ele>
        <time>2013-04-07T15:31:48Z</time>
      </trkpt>
      <trkpt lat="43.61608" lon="7.04142">
        <ele>132.7993164</ele>
        <time>2013-04-07T15:31:54Z</time>
      </trkpt>
      <trkpt lat="43.61599" lon="7.04129">
        <ele>134.7219238</ele>
        <time>2013-04-07T15:32:00Z</time>
      </trkpt>
      <trkpt lat="43.61588" lon="7.04129">
        <ele>135.2025146</ele>
        <time>2013-04-07T15:32:06Z</time>
      </trkpt>
      <trkpt lat="43.61578" lon="7.0414">
        <ele>133.760498</ele>
        <time>2013-04-07T15:32:11Z</time>
      </trkpt>
      <trkpt lat="43.61571" lon="7.04149">
        <ele>131.8378906</ele>
        <time>2013-04-07T15:32:15Z</time>
      </trkpt>
      <trkpt lat="43.61564" lon="7.04162">
        <ele>131.3572998</ele>
        <time>2013-04-07T15:32:20Z</time>
      </trkpt>
      <trkpt lat="43.61555" lon="7.04177">
        <ele>129.4346924</ele>
        <time>2013-04-07T15:32:25Z</time>
      </trkpt>
      <trkpt lat="43.61545" lon="7.04192">
        <ele>124.6280518</ele>
        <time>2013-04-07T15:32:31Z</time>
      </trkpt>
      <trkpt lat="43.61537" lon="7.04205">
        <ele>123.1861572</ele>
        <time>2013-04-07T15:32:36Z</time>
      </trkpt>
      <trkpt lat="43.6153" lon="7.04216">
        <ele>121.7441406</ele>
        <time>2013-04-07T15:32:40Z</time>
      </trkpt>
      <trkpt lat="43.61526" lon="7.04227">
        <ele>124.1473389</ele>
        <time>2013-04-07T15:32:44Z</time>
      </trkpt>
      <trkpt lat="43.61519" lon="7.04242">
        <ele>124.1473389</ele>
        <time>2013-04-07T15:32:48Z</time>
      </trkpt>
      <trkpt lat="43.61515" lon="7.04253">
        <ele>124.6280518</ele>
        <time>2013-04-07T15:32:52Z</time>
      </trkpt>
      <trkpt lat="43.61509" lon="7.04265">
        <ele>126.0699463</ele>
        <time>2013-04-07T15:32:57Z</time>
      </trkpt>
      <trkpt lat="43.61505" lon="7.04273">
        <ele>128.4733887</ele>
        <time>2013-04-07T15:33:00Z</time>
      </trkpt>
      <trkpt lat="43.61499" lon="7.04286">
        <ele>130.876709</ele>
        <time>2013-04-07T15:33:05Z</time>
      </trkpt>
      <trkpt lat="43.6149" lon="7.04298">
        <ele>133.760498</ele>
        <time>2013-04-07T15:33:11Z</time>
      </trkpt>
      <trkpt lat="43.61478" lon="7.04312">
        <ele>136.1639404</ele>
        <time>2013-04-07T15:33:18Z</time>
      </trkpt>
      <trkpt lat="43.61469" lon="7.04323">
        <ele>137.605835</ele>
        <time>2013-04-07T15:33:23Z</time>
      </trkpt>
      <trkpt lat="43.61461" lon="7.04335">
        <ele>136.6446533</ele>
        <time>2013-04-07T15:33:28Z</time>
      </trkpt>
      <trkpt lat="43.61454" lon="7.04345">
        <ele>137.1252441</ele>
        <time>2013-04-07T15:33:33Z</time>
      </trkpt>
      <trkpt lat="43.61452" lon="7.0435">
        <ele>137.605835</ele>
        <time>2013-04-07T15:33:35Z</time>
      </trkpt>
      <trkpt lat="43.61446" lon="7.04359">
        <ele>141.9317627</ele>
        <time>2013-04-07T15:33:39Z</time>
      </trkpt>
      <trkpt lat="43.61437" lon="7.04373">
        <ele>145.2963867</ele>
        <time>2013-04-07T15:33:45Z</time>
      </trkpt>
      <trkpt lat="43.61434" lon="7.04385">
        <ele>145.2963867</ele>
        <time>2013-04-07T15:33:50Z</time>
      </trkpt>
      <trkpt lat="43.61432" lon="7.04392">
        <ele>145.2963867</ele>
        <time>2013-04-07T15:33:53Z</time>
      </trkpt>
      <trkpt lat="43.61425" lon="7.04405">
        <ele>145.7770996</ele>
        <time>2013-04-07T15:33:58Z</time>
      </trkpt>
      <trkpt lat="43.6142" lon="7.0442">
        <ele>143.8543701</ele>
        <time>2013-04-07T15:34:04Z</time>
      </trkpt>
      <trkpt lat="43.61419" lon="7.04423">
        <ele>143.3736572</ele>
        <time>2013-04-07T15:34:05Z</time>
      </trkpt>
      <trkpt lat="43.61412" lon="7.04448">
        <ele>143.3736572</ele>
        <time>2013-04-07T15:34:14Z</time>
      </trkpt>
      <trkpt lat="43.61411" lon="7.0445">
        <ele>143.3736572</ele>
        <time>2013-04-07T15:34:15Z</time>
      </trkpt>
      <trkpt lat="43.61404" lon="7.0447">
        <ele>144.8157959</ele>
        <time>2013-04-07T15:34:22Z</time>
      </trkpt>
      <trkpt lat="43.61403" lon="7.04473">
        <ele>143.8543701</ele>
        <time>2013-04-07T15:34:23Z</time>
      </trkpt>
      <trkpt lat="43.61402" lon="7.04483">
        <ele>142.4124756</ele>
        <time>2013-04-07T15:34:27Z</time>
      </trkpt>
      <trkpt lat="43.61401" lon="7.04496">
        <ele>142.4124756</ele>
        <time>2013-04-07T15:34:31Z</time>
      </trkpt>
      <trkpt lat="43.614" lon="7.04505">
        <ele>142.8930664</ele>
        <time>2013-04-07T15:34:34Z</time>
      </trkpt>
      <trkpt lat="43.614" lon="7.04518">
        <ele>142.4124756</ele>
        <time>2013-04-07T15:34:38Z</time>
      </trkpt>
      <trkpt lat="43.61401" lon="7.04536">
        <ele>142.8930664</ele>
        <time>2013-04-07T15:34:44Z</time>
      </trkpt>
      <trkpt lat="43.61397" lon="7.04552">
        <ele>143.3736572</ele>
        <time>2013-04-07T15:34:49Z</time>
      </trkpt>
      <trkpt lat="43.61391" lon="7.04566">
        <ele>146.2578125</ele>
        <time>2013-04-07T15:34:54Z</time>
      </trkpt>
      <trkpt lat="43.61385" lon="7.0458">
        <ele>145.7770996</ele>
        <time>2013-04-07T15:34:59Z</time>
      </trkpt>
      <trkpt lat="43.61379" lon="7.04596">
        <ele>149.1416016</ele>
        <time>2013-04-07T15:35:04Z</time>
      </trkpt>
      <trkpt lat="43.61379" lon="7.04599">
        <ele>150.1030273</ele>
        <time>2013-04-07T15:35:05Z</time>
      </trkpt>
      <trkpt lat="43.61375" lon="7.04617">
        <ele>152.0257568</ele>
        <time>2013-04-07T15:35:11Z</time>
      </trkpt>
      <trkpt lat="43.61374" lon="7.0463">
        <ele>152.9869385</ele>
        <time>2013-04-07T15:35:15Z</time>
      </trkpt>
      <trkpt lat="43.61376" lon="7.04645">
        <ele>153.9483643</ele>
        <time>2013-04-07T15:35:20Z</time>
      </trkpt>
      <trkpt lat="43.61381" lon="7.04663">
        <ele>152.9869385</ele>
        <time>2013-04-07T15:35:26Z</time>
      </trkpt>
      <trkpt lat="43.61387" lon="7.04676">
        <ele>152.9869385</ele>
        <time>2013-04-07T15:35:31Z</time>
      </trkpt>
      <trkpt lat="43.61388" lon="7.04679">
        <ele>153.4676514</ele>
        <time>2013-04-07T15:35:32Z</time>
      </trkpt>
      <trkpt lat="43.61392" lon="7.04686">
        <ele>153.4676514</ele>
        <time>2013-04-07T15:35:35Z</time>
      </trkpt>
      <trkpt lat="43.61402" lon="7.047">
        <ele>155.8709717</ele>
        <time>2013-04-07T15:35:40Z</time>
      </trkpt>
      <trkpt lat="43.6141" lon="7.04715">
        <ele>159.2354736</ele>
        <time>2013-04-07T15:35:46Z</time>
      </trkpt>
      <trkpt lat="43.61415" lon="7.04724">
        <ele>159.2354736</ele>
        <time>2013-04-07T15:35:50Z</time>
      </trkpt>
      <trkpt lat="43.61424" lon="7.04739">
        <ele>164.5227051</ele>
        <time>2013-04-07T15:35:56Z</time>
      </trkpt>
      <trkpt lat="43.61431" lon="7.0475">
        <ele>165.003418</ele>
        <time>2013-04-07T15:36:01Z</time>
      </trkpt>
      <trkpt lat="43.61436" lon="7.04758">
        <ele>165.4841309</ele>
        <time>2013-04-07T15:36:05Z</time>
      </trkpt>
      <trkpt lat="43.61448" lon="7.04767">
        <ele>166.4453125</ele>
        <time>2013-04-07T15:36:11Z</time>
      </trkpt>
      <trkpt lat="43.61453" lon="7.04771">
        <ele>165.9647217</ele>
        <time>2013-04-07T15:36:15Z</time>
      </trkpt>
      <trkpt lat="43.61461" lon="7.04778">
        <ele>164.0421143</ele>
        <time>2013-04-07T15:36:19Z</time>
      </trkpt>
      <trkpt lat="43.61471" lon="7.04785">
        <ele>163.0808105</ele>
        <time>2013-04-07T15:36:24Z</time>
      </trkpt>
      <trkpt lat="43.61482" lon="7.04794">
        <ele>162.6000977</ele>
        <time>2013-04-07T15:36:30Z</time>
      </trkpt>
      <trkpt lat="43.61498" lon="7.04808">
        <ele>165.003418</ele>
        <time>2013-04-07T15:36:38Z</time>
      </trkpt>
      <trkpt lat="43.61507" lon="7.0482">
        <ele>168.8487549</ele>
        <time>2013-04-07T15:36:43Z</time>
      </trkpt>
      <trkpt lat="43.61516" lon="7.04829">
        <ele>172.2132568</ele>
        <time>2013-04-07T15:36:48Z</time>
      </trkpt>
      <trkpt lat="43.61524" lon="7.04836">
        <ele>173.1746826</ele>
        <time>2013-04-07T15:36:52Z</time>
      </trkpt>
      <trkpt lat="43.61533" lon="7.04848">
        <ele>173.1746826</ele>
        <time>2013-04-07T15:36:57Z</time>
      </trkpt>
      <trkpt lat="43.61543" lon="7.04858">
        <ele>175.5778809</ele>
        <time>2013-04-07T15:37:02Z</time>
      </trkpt>
      <trkpt lat="43.61555" lon="7.04874">
        <ele>177.5006104</ele>
        <time>2013-04-07T15:37:08Z</time>
      </trkpt>
      <trkpt lat="43.6156" lon="7.04882">
        <ele>177.5006104</ele>
        <time>2013-04-07T15:37:11Z</time>
      </trkpt>
      <trkpt lat="43.61555" lon="7.04893">
        <ele>174.1358643</ele>
        <time>2013-04-07T15:37:15Z</time>
      </trkpt>
      <trkpt lat="43.61547" lon="7.04912">
        <ele>171.2520752</ele>
        <time>2013-04-07T15:37:22Z</time>
      </trkpt>
      <trkpt lat="43.61542" lon="7.04922">
        <ele>167.8873291</ele>
        <time>2013-04-07T15:37:26Z</time>
      </trkpt>
      <trkpt lat="43.61534" lon="7.04939">
        <ele>163.5615234</ele>
        <time>2013-04-07T15:37:32Z</time>
      </trkpt>
      <trkpt lat="43.61524" lon="7.04951">
        <ele>158.7547607</ele>
        <time>2013-04-07T15:37:38Z</time>
      </trkpt>
      <trkpt lat="43.61513" lon="7.04964">
        <ele>160.6774902</ele>
        <time>2013-04-07T15:37:44Z</time>
      </trkpt>
      <trkpt lat="43.61497" lon="7.0498">
        <ele>164.5227051</ele>
        <time>2013-04-07T15:37:51Z</time>
      </trkpt>
      <trkpt lat="43.61488" lon="7.0499">
        <ele>163.5615234</ele>
        <time>2013-04-07T15:37:55Z</time>
      </trkpt>
      <trkpt lat="43.61482" lon="7.05002">
        <ele>164.0421143</ele>
        <time>2013-04-07T15:38:00Z</time>
      </trkpt>
      <trkpt lat="43.61479" lon="7.0501">
        <ele>164.0421143</ele>
        <time>2013-04-07T15:38:03Z</time>
      </trkpt>
      <trkpt lat="43.61477" lon="7.05029">
        <ele>164.5227051</ele>
        <time>2013-04-07T15:38:09Z</time>
      </trkpt>
      <trkpt lat="43.61475" lon="7.05047">
        <ele>168.8487549</ele>
        <time>2013-04-07T15:38:14Z</time>
      </trkpt>
      <trkpt lat="43.61465" lon="7.05065">
        <ele>167.4067383</ele>
        <time>2013-04-07T15:38:21Z</time>
      </trkpt>
      <trkpt lat="43.61456" lon="7.05079">
        <ele>164.0421143</ele>
        <time>2013-04-07T15:38:26Z</time>
      </trkpt>
      <trkpt lat="43.6145" lon="7.0509">
        <ele>163.5615234</ele>
        <time>2013-04-07T15:38:30Z</time>
      </trkpt>
      <trkpt lat="43.61439" lon="7.05105">
        <ele>161.638916</ele>
        <time>2013-04-07T15:38:36Z</time>
      </trkpt>
      <trkpt lat="43.61429" lon="7.0512">
        <ele>159.7161865</ele>
        <time>2013-04-07T15:38:42Z</time>
      </trkpt>
      <trkpt lat="43.6142" lon="7.05127">
        <ele>160.1968994</ele>
        <time>2013-04-07T15:38:46Z</time>
      </trkpt>
      <trkpt lat="43.61418" lon="7.05128">
        <ele>160.1968994</ele>
        <time>2013-04-07T15:38:47Z</time>
      </trkpt>
      <trkpt lat="43.61399" lon="7.0513">
        <ele>160.6774902</ele>
        <time>2013-04-07T15:38:55Z</time>
      </trkpt>
      <trkpt lat="43.61385" lon="7.05132">
        <ele>158.7547607</ele>
        <time>2013-04-07T15:39:01Z</time>
      </trkpt>
      <trkpt lat="43.61372" lon="7.0513">
        <ele>158.2741699</ele>
        <time>2013-04-07T15:39:06Z</time>
      </trkpt>
      <trkpt lat="43.61356" lon="7.05126">
        <ele>156.8321533</ele>
        <time>2013-04-07T15:39:13Z</time>
      </trkpt>
      <trkpt lat="43.61351" lon="7.05122">
        <ele>156.8321533</ele>
        <time>2013-04-07T15:39:15Z</time>
      </trkpt>
      <trkpt lat="43.61348" lon="7.05108">
        <ele>156.3515625</ele>
        <time>2013-04-07T15:39:20Z</time>
      </trkpt>
      <trkpt lat="43.61348" lon="7.05084">
        <ele>157.3128662</ele>
        <time>2013-04-07T15:39:27Z</time>
      </trkpt>
      <trkpt lat="43.61349" lon="7.05064">
        <ele>156.3515625</ele>
        <time>2013-04-07T15:39:33Z</time>
      </trkpt>
      <trkpt lat="43.61351" lon="7.05052">
        <ele>156.3515625</ele>
        <time>2013-04-07T15:39:37Z</time>
      </trkpt>
      <trkpt lat="43.6135" lon="7.05031">
        <ele>155.8709717</ele>
        <time>2013-04-07T15:39:43Z</time>
      </trkpt>
      <trkpt lat="43.61344" lon="7.05015">
        <ele>155.8709717</ele>
        <time>2013-04-07T15:39:48Z</time>
      </trkpt>
      <trkpt lat="43.6134" lon="7.05011">
        <ele>155.3902588</ele>
        <time>2013-04-07T15:39:50Z</time>
      </trkpt>
      <trkpt lat="43.61326" lon="7.05007">
        <ele>153.4676514</ele>
        <time>2013-04-07T15:39:56Z</time>
      </trkpt>
      <trkpt lat="43.61322" lon="7.05007">
        <ele>152.9869385</ele>
        <time>2013-04-07T15:39:58Z</time>
      </trkpt>
      <trkpt lat="43.61304" lon="7.05008">
        <ele>152.9869385</ele>
        <time>2013-04-07T15:40:05Z</time>
      </trkpt>
      <trkpt lat="43.61292" lon="7.05007">
        <ele>148.6610107</ele>
        <time>2013-04-07T15:40:10Z</time>
      </trkpt>
      <trkpt lat="43.6128" lon="7.05012">
        <ele>149.1416016</ele>
        <time>2013-04-07T15:40:15Z</time>
      </trkpt>
      <trkpt lat="43.61263" lon="7.0502">
        <ele>150.5836182</ele>
        <time>2013-04-07T15:40:22Z</time>
      </trkpt>
      <trkpt lat="43.6125" lon="7.05024">
        <ele>149.1416016</ele>
        <time>2013-04-07T15:40:27Z</time>
      </trkpt>
      <trkpt lat="43.61237" lon="7.05024">
        <ele>147.2189941</ele>
        <time>2013-04-07T15:40:32Z</time>
      </trkpt>
      <trkpt lat="43.61228" lon="7.05022">
        <ele>143.8543701</ele>
        <time>2013-04-07T15:40:36Z</time>
      </trkpt>
      <trkpt lat="43.61216" lon="7.05018">
        <ele>137.1252441</ele>
        <time>2013-04-07T15:40:42Z</time>
      </trkpt>
      <trkpt lat="43.61202" lon="7.05017">
        <ele>131.8378906</ele>
        <time>2013-04-07T15:40:48Z</time>
      </trkpt>
      <trkpt lat="43.6119" lon="7.05022">
        <ele>129.9152832</ele>
        <time>2013-04-07T15:40:53Z</time>
      </trkpt>
      <trkpt lat="43.61176" lon="7.05035">
        <ele>131.8378906</ele>
        <time>2013-04-07T15:40:59Z</time>
      </trkpt>
      <trkpt lat="43.61163" lon="7.05047">
        <ele>131.3572998</ele>
        <time>2013-04-07T15:41:04Z</time>
      </trkpt>
      <trkpt lat="43.61157" lon="7.05054">
        <ele>129.4346924</ele>
        <time>2013-04-07T15:41:07Z</time>
      </trkpt>
      <trkpt lat="43.61151" lon="7.05062">
        <ele>128.4733887</ele>
        <time>2013-04-07T15:41:11Z</time>
      </trkpt>
      <trkpt lat="43.6114" lon="7.05077">
        <ele>124.1473389</ele>
        <time>2013-04-07T15:41:17Z</time>
      </trkpt>
      <trkpt lat="43.6113" lon="7.0509">
        <ele>118.8601074</ele>
        <time>2013-04-07T15:41:23Z</time>
      </trkpt>
      <trkpt lat="43.61122" lon="7.05101">
        <ele>115.0148926</ele>
        <time>2013-04-07T15:41:28Z</time>
      </trkpt>
      <trkpt lat="43.61117" lon="7.05111">
        <ele>111.6502686</ele>
        <time>2013-04-07T15:41:32Z</time>
      </trkpt>
      <trkpt lat="43.61105" lon="7.05129">
        <ele>108.7662354</ele>
        <time>2013-04-07T15:41:39Z</time>
      </trkpt>
      <trkpt lat="43.61102" lon="7.05142">
        <ele>109.2469482</ele>
        <time>2013-04-07T15:41:43Z</time>
      </trkpt>
      <trkpt lat="43.61101" lon="7.0516">
        <ele>108.7662354</ele>
        <time>2013-04-07T15:41:48Z</time>
      </trkpt>
      <trkpt lat="43.61108" lon="7.05176">
        <ele>110.6888428</ele>
        <time>2013-04-07T15:41:53Z</time>
      </trkpt>
      <trkpt lat="43.61115" lon="7.05187">
        <ele>113.572998</ele>
        <time>2013-04-07T15:41:57Z</time>
      </trkpt>
      <trkpt lat="43.61121" lon="7.052">
        <ele>116.4567871</ele>
        <time>2013-04-07T15:42:01Z</time>
      </trkpt>
      <trkpt lat="43.6113" lon="7.0521">
        <ele>118.8601074</ele>
        <time>2013-04-07T15:42:05Z</time>
      </trkpt>
      <trkpt lat="43.61136" lon="7.05222">
        <ele>121.2635498</ele>
        <time>2013-04-07T15:42:09Z</time>
      </trkpt>
      <trkpt lat="43.61142" lon="7.05233">
        <ele>123.1861572</ele>
        <time>2013-04-07T15:42:13Z</time>
      </trkpt>
      <trkpt lat="43.61143" lon="7.05235">
        <ele>123.1861572</ele>
        <time>2013-04-07T15:42:14Z</time>
      </trkpt>
      <trkpt lat="43.61152" lon="7.05251">
        <ele>126.0699463</ele>
        <time>2013-04-07T15:42:20Z</time>
      </trkpt>
      <trkpt lat="43.61158" lon="7.05263">
        <ele>126.5506592</ele>
        <time>2013-04-07T15:42:25Z</time>
      </trkpt>
      <trkpt lat="43.61164" lon="7.05276">
        <ele>127.5119629</ele>
        <time>2013-04-07T15:42:30Z</time>
      </trkpt>
      <trkpt lat="43.61169" lon="7.05285">
        <ele>128.4733887</ele>
        <time>2013-04-07T15:42:34Z</time>
      </trkpt>
      <trkpt lat="43.61175" lon="7.05295">
        <ele>130.876709</ele>
        <time>2013-04-07T15:42:39Z</time>
      </trkpt>
      <trkpt lat="43.61182" lon="7.05308">
        <ele>131.8378906</ele>
        <time>2013-04-07T15:42:45Z</time>
      </trkpt>
      <trkpt lat="43.61191" lon="7.05321">
        <ele>135.2025146</ele>
        <time>2013-04-07T15:42:51Z</time>
      </trkpt>
      <trkpt lat="43.612" lon="7.05326">
        <ele>135.2025146</ele>
        <time>2013-04-07T15:42:55Z</time>
      </trkpt>
      <trkpt lat="43.61206" lon="7.05332">
        <ele>137.1252441</ele>
        <time>2013-04-07T15:42:59Z</time>
      </trkpt>
      <trkpt lat="43.61216" lon="7.05335">
        <ele>137.1252441</ele>
        <time>2013-04-07T15:43:04Z</time>
      </trkpt>
      <trkpt lat="43.61218" lon="7.05336">
        <ele>138.0865479</ele>
        <time>2013-04-07T15:43:05Z</time>
      </trkpt>
      <trkpt lat="43.61234" lon="7.05341">
        <ele>141.4510498</ele>
        <time>2013-04-07T15:43:12Z</time>
      </trkpt>
      <trkpt lat="43.61245" lon="7.05345">
        <ele>144.8157959</ele>
        <time>2013-04-07T15:43:18Z</time>
      </trkpt>
      <trkpt lat="43.61253" lon="7.0535">
        <ele>146.2578125</ele>
        <time>2013-04-07T15:43:22Z</time>
      </trkpt>
      <trkpt lat="43.6126" lon="7.05354">
        <ele>146.7384033</ele>
        <time>2013-04-07T15:43:26Z</time>
      </trkpt>
      <trkpt lat="43.6127" lon="7.05358">
        <ele>147.2189941</ele>
        <time>2013-04-07T15:43:32Z</time>
      </trkpt>
      <trkpt lat="43.61281" lon="7.05361">
        <ele>148.1804199</ele>
        <time>2013-04-07T15:43:38Z</time>
      </trkpt>
      <trkpt lat="43.61292" lon="7.05365">
        <ele>148.6610107</ele>
        <time>2013-04-07T15:43:43Z</time>
      </trkpt>
      <trkpt lat="43.613" lon="7.05368">
        <ele>148.6610107</ele>
        <time>2013-04-07T15:43:47Z</time>
      </trkpt>
      <trkpt lat="43.61311" lon="7.05373">
        <ele>149.6223145</ele>
        <time>2013-04-07T15:43:52Z</time>
      </trkpt>
      <trkpt lat="43.61325" lon="7.05379">
        <ele>151.5449219</ele>
        <time>2013-04-07T15:43:59Z</time>
      </trkpt>
      <trkpt lat="43.61338" lon="7.05384">
        <ele>151.5449219</ele>
        <time>2013-04-07T15:44:05Z</time>
      </trkpt>
      <trkpt lat="43.61352" lon="7.0539">
        <ele>149.6223145</ele>
        <time>2013-04-07T15:44:11Z</time>
      </trkpt>
      <trkpt lat="43.61358" lon="7.05394">
        <ele>150.1030273</ele>
        <time>2013-04-07T15:44:14Z</time>
      </trkpt>
      <trkpt lat="43.61373" lon="7.05398">
        <ele>152.5063477</ele>
        <time>2013-04-07T15:44:21Z</time>
      </trkpt>
      <trkpt lat="43.61384" lon="7.05397">
        <ele>154.9095459</ele>
        <time>2013-04-07T15:44:26Z</time>
      </trkpt>
      <trkpt lat="43.61395" lon="7.05394">
        <ele>153.4676514</ele>
        <time>2013-04-07T15:44:31Z</time>
      </trkpt>
      <trkpt lat="43.6141" lon="7.05396">
        <ele>152.5063477</ele>
        <time>2013-04-07T15:44:37Z</time>
      </trkpt>
      <trkpt lat="43.61417" lon="7.05392">
        <ele>152.5063477</ele>
        <time>2013-04-07T15:44:41Z</time>
      </trkpt>
      <trkpt lat="43.61426" lon="7.05384">
        <ele>152.5063477</ele>
        <time>2013-04-07T15:44:46Z</time>
      </trkpt>
      <trkpt lat="43.61436" lon="7.05375">
        <ele>153.9483643</ele>
        <time>2013-04-07T15:44:51Z</time>
      </trkpt>
      <trkpt lat="43.61441" lon="7.0537">
        <ele>154.9095459</ele>
        <time>2013-04-07T15:44:54Z</time>
      </trkpt>
      <trkpt lat="43.6145" lon="7.05361">
        <ele>156.3515625</ele>
        <time>2013-04-07T15:44:59Z</time>
      </trkpt>
      <trkpt lat="43.61461" lon="7.05351">
        <ele>157.3128662</ele>
        <time>2013-04-07T15:45:06Z</time>
      </trkpt>
      <trkpt lat="43.61472" lon="7.05344">
        <ele>159.7161865</ele>
        <time>2013-04-07T15:45:11Z</time>
      </trkpt>
      <trkpt lat="43.61483" lon="7.05332">
        <ele>162.6000977</ele>
        <time>2013-04-07T15:45:17Z</time>
      </trkpt>
      <trkpt lat="43.61488" lon="7.05331">
        <ele>163.0808105</ele>
        <time>2013-04-07T15:45:19Z</time>
      </trkpt>
      <trkpt lat="43.61505" lon="7.0533">
        <ele>166.4453125</ele>
        <time>2013-04-07T15:45:26Z</time>
      </trkpt>
      <trkpt lat="43.61509" lon="7.05332">
        <ele>165.003418</ele>
        <time>2013-04-07T15:45:28Z</time>
      </trkpt>
      <trkpt lat="43.61519" lon="7.05341">
        <ele>162.6000977</ele>
        <time>2013-04-07T15:45:34Z</time>
      </trkpt>
      <trkpt lat="43.61527" lon="7.05355">
        <ele>162.1195068</ele>
        <time>2013-04-07T15:45:39Z</time>
      </trkpt>
      <trkpt lat="43.61526" lon="7.05367">
        <ele>161.638916</ele>
        <time>2013-04-07T15:45:43Z</time>
      </trkpt>
      <trkpt lat="43.61527" lon="7.0537">
        <ele>161.1582031</ele>
        <time>2013-04-07T15:45:44Z</time>
      </trkpt>
      <trkpt lat="43.61537" lon="7.05392">
        <ele>164.5227051</ele>
        <time>2013-04-07T15:45:51Z</time>
      </trkpt>
      <trkpt lat="43.61539" lon="7.05406">
        <ele>165.9647217</ele>
        <time>2013-04-07T15:45:55Z</time>
      </trkpt>
      <trkpt lat="43.6154" lon="7.05424">
        <ele>165.003418</ele>
        <time>2013-04-07T15:46:01Z</time>
      </trkpt>
      <trkpt lat="43.61545" lon="7.05443">
        <ele>165.9647217</ele>
        <time>2013-04-07T15:46:07Z</time>
      </trkpt>
      <trkpt lat="43.6155" lon="7.05459">
        <ele>169.3294678</ele>
        <time>2013-04-07T15:46:12Z</time>
      </trkpt>
      <trkpt lat="43.61552" lon="7.05472">
        <ele>170.7713623</ele>
        <time>2013-04-07T15:46:16Z</time>
      </trkpt>
      <trkpt lat="43.61558" lon="7.05483">
        <ele>170.2906494</ele>
        <time>2013-04-07T15:46:21Z</time>
      </trkpt>
      <trkpt lat="43.61558" lon="7.05485">
        <ele>170.7713623</ele>
        <time>2013-04-07T15:46:22Z</time>
      </trkpt>
      <trkpt lat="43.61568" lon="7.05497">
        <ele>168.8487549</ele>
        <time>2013-04-07T15:46:29Z</time>
      </trkpt>
      <trkpt lat="43.6158" lon="7.05503">
        <ele>168.8487549</ele>
        <time>2013-04-07T15:46:34Z</time>
      </trkpt>
      <trkpt lat="43.61593" lon="7.05505">
        <ele>167.4067383</ele>
        <time>2013-04-07T15:46:39Z</time>
      </trkpt>
      <trkpt lat="43.61604" lon="7.05505">
        <ele>168.368042</ele>
        <time>2013-04-07T15:46:44Z</time>
      </trkpt>
      <trkpt lat="43.61616" lon="7.05502">
        <ele>168.8487549</ele>
        <time>2013-04-07T15:46:50Z</time>
      </trkpt>
      <trkpt lat="43.61627" lon="7.05498">
        <ele>168.8487549</ele>
        <time>2013-04-07T15:46:55Z</time>
      </trkpt>
      <trkpt lat="43.61644" lon="7.05494">
        <ele>170.2906494</ele>
        <time>2013-04-07T15:47:02Z</time>
      </trkpt>
      <trkpt lat="43.61655" lon="7.05489">
        <ele>170.7713623</ele>
        <time>2013-04-07T15:47:07Z</time>
      </trkpt>
      <trkpt lat="43.61668" lon="7.05485">
        <ele>171.2520752</ele>
        <time>2013-04-07T15:47:13Z</time>
      </trkpt>
      <trkpt lat="43.6167" lon="7.05485">
        <ele>171.2520752</ele>
        <time>2013-04-07T15:47:14Z</time>
      </trkpt>
      <trkpt lat="43.61683" lon="7.05483">
        <ele>171.732666</ele>
        <time>2013-04-07T15:47:19Z</time>
      </trkpt>
      <trkpt lat="43.61687" lon="7.05483">
        <ele>171.2520752</ele>
        <time>2013-04-07T15:47:21Z</time>
      </trkpt>
      <trkpt lat="43.61698" lon="7.05485">
        <ele>172.6939697</ele>
        <time>2013-04-07T15:47:26Z</time>
      </trkpt>
      <trkpt lat="43.61711" lon="7.0549">
        <ele>172.6939697</ele>
        <time>2013-04-07T15:47:31Z</time>
      </trkpt>
      <trkpt lat="43.6172" lon="7.05496">
        <ele>173.6552734</ele>
        <time>2013-04-07T15:47:35Z</time>
      </trkpt>
      <trkpt lat="43.61732" lon="7.055">
        <ele>175.09729</ele>
        <time>2013-04-07T15:47:40Z</time>
      </trkpt>
      <trkpt lat="43.61748" lon="7.05506">
        <ele>177.5006104</ele>
        <time>2013-04-07T15:47:47Z</time>
      </trkpt>
      <trkpt lat="43.6176" lon="7.05505">
        <ele>177.9812012</ele>
        <time>2013-04-07T15:47:52Z</time>
      </trkpt>
      <trkpt lat="43.61773" lon="7.05498">
        <ele>177.9812012</ele>
        <time>2013-04-07T15:47:58Z</time>
      </trkpt>
      <trkpt lat="43.61782" lon="7.05491">
        <ele>177.0200195</ele>
        <time>2013-04-07T15:48:02Z</time>
      </trkpt>
      <trkpt lat="43.6179" lon="7.05479">
        <ele>174.6165771</ele>
        <time>2013-04-07T15:48:07Z</time>
      </trkpt>
      <trkpt lat="43.61795" lon="7.05462">
        <ele>171.732666</ele>
        <time>2013-04-07T15:48:13Z</time>
      </trkpt>
      <trkpt lat="43.61798" lon="7.05442">
        <ele>168.368042</ele>
        <time>2013-04-07T15:48:19Z</time>
      </trkpt>
      <trkpt lat="43.618" lon="7.05427">
        <ele>166.4453125</ele>
        <time>2013-04-07T15:48:23Z</time>
      </trkpt>
      <trkpt lat="43.61801" lon="7.05407">
        <ele>165.4841309</ele>
        <time>2013-04-07T15:48:29Z</time>
      </trkpt>
      <trkpt lat="43.61801" lon="7.054">
        <ele>164.0421143</ele>
        <time>2013-04-07T15:48:31Z</time>
      </trkpt>
      <trkpt lat="43.61804" lon="7.05385">
        <ele>162.6000977</ele>
        <time>2013-04-07T15:48:36Z</time>
      </trkpt>
      <trkpt lat="43.61805" lon="7.05363">
        <ele>162.1195068</ele>
        <time>2013-04-07T15:48:42Z</time>
      </trkpt>
      <trkpt lat="43.6181" lon="7.05366">
        <ele>161.1582031</ele>
        <time>2013-04-07T15:48:45Z</time>
      </trkpt>
      <trkpt lat="43.61816" lon="7.0538">
        <ele>160.1968994</ele>
        <time>2013-04-07T15:48:50Z</time>
      </trkpt>
      <trkpt lat="43.61821" lon="7.05399">
        <ele>158.7547607</ele>
        <time>2013-04-07T15:48:56Z</time>
      </trkpt>
      <trkpt lat="43.61826" lon="7.05411">
        <ele>160.1968994</ele>
        <time>2013-04-07T15:49:00Z</time>
      </trkpt>
      <trkpt lat="43.61834" lon="7.05429">
        <ele>161.638916</ele>
        <time>2013-04-07T15:49:06Z</time>
      </trkpt>
      <trkpt lat="43.61839" lon="7.05446">
        <ele>161.1582031</ele>
        <time>2013-04-07T15:49:11Z</time>
      </trkpt>
      <trkpt lat="43.61841" lon="7.05467">
        <ele>160.1968994</ele>
        <time>2013-04-07T15:49:17Z</time>
      </trkpt>
      <trkpt lat="43.61843" lon="7.05484">
        <ele>160.1968994</ele>
        <time>2013-04-07T15:49:22Z</time>
      </trkpt>
      <trkpt lat="43.61841" lon="7.05505">
        <ele>160.6774902</ele>
        <time>2013-04-07T15:49:28Z</time>
      </trkpt>
      <trkpt lat="43.61837" lon="7.05525">
        <ele>161.1582031</ele>
        <time>2013-04-07T15:49:34Z</time>
      </trkpt>
      <trkpt lat="43.61834" lon="7.05545">
        <ele>161.638916</ele>
        <time>2013-04-07T15:49:40Z</time>
      </trkpt>
      <trkpt lat="43.6183" lon="7.05562">
        <ele>161.638916</ele>
        <time>2013-04-07T15:49:45Z</time>
      </trkpt>
      <trkpt lat="43.61822" lon="7.05577">
        <ele>157.3128662</ele>
        <time>2013-04-07T15:49:50Z</time>
      </trkpt>
      <trkpt lat="43.61816" lon="7.05592">
        <ele>153.4676514</ele>
        <time>2013-04-07T15:49:55Z</time>
      </trkpt>
      <trkpt lat="43.6181" lon="7.05611">
        <ele>150.5836182</ele>
        <time>2013-04-07T15:50:01Z</time>
      </trkpt>
      <trkpt lat="43.61805" lon="7.05634">
        <ele>148.6610107</ele>
        <time>2013-04-07T15:50:08Z</time>
      </trkpt>
      <trkpt lat="43.61801" lon="7.0566">
        <ele>148.1804199</ele>
        <time>2013-04-07T15:50:15Z</time>
      </trkpt>
      <trkpt lat="43.618" lon="7.05681">
        <ele>147.699707</ele>
        <time>2013-04-07T15:50:21Z</time>
      </trkpt>
      <trkpt lat="43.61797" lon="7.05702">
        <ele>145.2963867</ele>
        <time>2013-04-07T15:50:27Z</time>
      </trkpt>
      <trkpt lat="43.61792" lon="7.05718">
        <ele>144.8157959</ele>
        <time>2013-04-07T15:50:32Z</time>
      </trkpt>
      <trkpt lat="43.6179" lon="7.05736">
        <ele>144.8157959</ele>
        <time>2013-04-07T15:50:37Z</time>
      </trkpt>
      <trkpt lat="43.61785" lon="7.05756">
        <ele>145.2963867</ele>
        <time>2013-04-07T15:50:43Z</time>
      </trkpt>
      <trkpt lat="43.61779" lon="7.05772">
        <ele>142.8930664</ele>
        <time>2013-04-07T15:50:48Z</time>
      </trkpt>
      <trkpt lat="43.61768" lon="7.05788">
        <ele>139.5284424</ele>
        <time>2013-04-07T15:50:54Z</time>
      </trkpt>
      <trkpt lat="43.61759" lon="7.05804">
        <ele>137.1252441</ele>
        <time>2013-04-07T15:51:00Z</time>
      </trkpt>
      <trkpt lat="43.61753" lon="7.05822">
        <ele>136.6446533</ele>
        <time>2013-04-07T15:51:06Z</time>
      </trkpt>
      <trkpt lat="43.61745" lon="7.05845">
        <ele>136.1639404</ele>
        <time>2013-04-07T15:51:13Z</time>
      </trkpt>
      <trkpt lat="43.61741" lon="7.05865">
        <ele>136.1639404</ele>
        <time>2013-04-07T15:51:19Z</time>
      </trkpt>
      <trkpt lat="43.61735" lon="7.05888">
        <ele>136.1639404</ele>
        <time>2013-04-07T15:51:26Z</time>
      </trkpt>
      <trkpt lat="43.61728" lon="7.05913">
        <ele>135.6831055</ele>
        <time>2013-04-07T15:51:34Z</time>
      </trkpt>
      <trkpt lat="43.61721" lon="7.05929">
        <ele>134.7219238</ele>
        <time>2013-04-07T15:51:39Z</time>
      </trkpt>
      <trkpt lat="43.6171" lon="7.05947">
        <ele>133.760498</ele>
        <time>2013-04-07T15:51:46Z</time>
      </trkpt>
      <trkpt lat="43.61707" lon="7.05964">
        <ele>134.2412109</ele>
        <time>2013-04-07T15:51:51Z</time>
      </trkpt>
      <trkpt lat="43.61706" lon="7.0598">
        <ele>133.760498</ele>
        <time>2013-04-07T15:51:56Z</time>
      </trkpt>
      <trkpt lat="43.61702" lon="7.06003">
        <ele>132.3186035</ele>
        <time>2013-04-07T15:52:03Z</time>
      </trkpt>
      <trkpt lat="43.617" lon="7.06019">
        <ele>130.876709</ele>
        <time>2013-04-07T15:52:08Z</time>
      </trkpt>
      <trkpt lat="43.61697" lon="7.06043">
        <ele>128.9541016</ele>
        <time>2013-04-07T15:52:15Z</time>
      </trkpt>
      <trkpt lat="43.61694" lon="7.06064">
        <ele>127.9925537</ele>
        <time>2013-04-07T15:52:21Z</time>
      </trkpt>
      <trkpt lat="43.61691" lon="7.0608">
        <ele>127.9925537</ele>
        <time>2013-04-07T15:52:26Z</time>
      </trkpt>
      <trkpt lat="43.61688" lon="7.06097">
        <ele>125.5893555</ele>
        <time>2013-04-07T15:52:31Z</time>
      </trkpt>
      <trkpt lat="43.61685" lon="7.06126">
        <ele>126.0699463</ele>
        <time>2013-04-07T15:52:39Z</time>
      </trkpt>
      <trkpt lat="43.61679" lon="7.0614">
        <ele>125.5893555</ele>
        <time>2013-04-07T15:52:44Z</time>
      </trkpt>
      <trkpt lat="43.61679" lon="7.06144">
        <ele>125.5893555</ele>
        <time>2013-04-07T15:52:45Z</time>
      </trkpt>
      <trkpt lat="43.61676" lon="7.06164">
        <ele>125.1087646</ele>
        <time>2013-04-07T15:52:51Z</time>
      </trkpt>
      <trkpt lat="43.61676" lon="7.06174">
        <ele>125.5893555</ele>
        <time>2013-04-07T15:52:54Z</time>
      </trkpt>
      <trkpt lat="43.61675" lon="7.06195">
        <ele>126.0699463</ele>
        <time>2013-04-07T15:53:00Z</time>
      </trkpt>
      <trkpt lat="43.61675" lon="7.06216">
        <ele>127.5119629</ele>
        <time>2013-04-07T15:53:06Z</time>
      </trkpt>
      <trkpt lat="43.61673" lon="7.06229">
        <ele>127.0313721</ele>
        <time>2013-04-07T15:53:10Z</time>
      </trkpt>
      <trkpt lat="43.61669" lon="7.06246">
        <ele>127.0313721</ele>
        <time>2013-04-07T15:53:15Z</time>
      </trkpt>
      <trkpt lat="43.61667" lon="7.06262">
        <ele>127.0313721</ele>
        <time>2013-04-07T15:53:20Z</time>
      </trkpt>
      <trkpt lat="43.61664" lon="7.06288">
        <ele>126.5506592</ele>
        <time>2013-04-07T15:53:28Z</time>
      </trkpt>
      <trkpt lat="43.61661" lon="7.06307">
        <ele>125.1087646</ele>
        <time>2013-04-07T15:53:34Z</time>
      </trkpt>
      <trkpt lat="43.61658" lon="7.06321">
        <ele>125.5893555</ele>
        <time>2013-04-07T15:53:38Z</time>
      </trkpt>
      <trkpt lat="43.61657" lon="7.06327">
        <ele>125.1087646</ele>
        <time>2013-04-07T15:53:40Z</time>
      </trkpt>
      <trkpt lat="43.61649" lon="7.06343">
        <ele>122.7054443</ele>
        <time>2013-04-07T15:53:46Z</time>
      </trkpt>
      <trkpt lat="43.61648" lon="7.06348">
        <ele>121.2635498</ele>
        <time>2013-04-07T15:53:48Z</time>
      </trkpt>
      <trkpt lat="43.61646" lon="7.06359">
        <ele>119.8214111</ele>
        <time>2013-04-07T15:53:52Z</time>
      </trkpt>
      <trkpt lat="43.61643" lon="7.06372">
        <ele>117.8988037</ele>
        <time>2013-04-07T15:53:56Z</time>
      </trkpt>
      <trkpt lat="43.6164" lon="7.06391">
        <ele>117.8988037</ele>
        <time>2013-04-07T15:54:02Z</time>
      </trkpt>
      <trkpt lat="43.61635" lon="7.06405">
        <ele>118.8601074</ele>
        <time>2013-04-07T15:54:06Z</time>
      </trkpt>
      <trkpt lat="43.61635" lon="7.0642">
        <ele>120.7828369</ele>
        <time>2013-04-07T15:54:10Z</time>
      </trkpt>
      <trkpt lat="43.61639" lon="7.06438">
        <ele>122.2247314</ele>
        <time>2013-04-07T15:54:15Z</time>
      </trkpt>
      <trkpt lat="43.61639" lon="7.06442">
        <ele>121.7441406</ele>
        <time>2013-04-07T15:54:16Z</time>
      </trkpt>
      <trkpt lat="43.61633" lon="7.06459">
        <ele>120.7828369</ele>
        <time>2013-04-07T15:54:22Z</time>
      </trkpt>
      <trkpt lat="43.61629" lon="7.06472">
        <ele>118.8601074</ele>
        <time>2013-04-07T15:54:27Z</time>
      </trkpt>
      <trkpt lat="43.61623" lon="7.06495">
        <ele>119.3408203</ele>
        <time>2013-04-07T15:54:34Z</time>
      </trkpt>
      <trkpt lat="43.61621" lon="7.06516">
        <ele>120.302124</ele>
        <time>2013-04-07T15:54:40Z</time>
      </trkpt>
      <trkpt lat="43.61619" lon="7.06532">
        <ele>120.302124</ele>
        <time>2013-04-07T15:54:45Z</time>
      </trkpt>
      <trkpt lat="43.61612" lon="7.06553">
        <ele>119.3408203</ele>
        <time>2013-04-07T15:54:52Z</time>
      </trkpt>
      <trkpt lat="43.61605" lon="7.0657">
        <ele>118.8601074</ele>
        <time>2013-04-07T15:54:58Z</time>
      </trkpt>
      <trkpt lat="43.61604" lon="7.06585">
        <ele>119.3408203</ele>
        <time>2013-04-07T15:55:03Z</time>
      </trkpt>
      <trkpt lat="43.61606" lon="7.06599">
        <ele>119.3408203</ele>
        <time>2013-04-07T15:55:07Z</time>
      </trkpt>
      <trkpt lat="43.61611" lon="7.06611">
        <ele>119.3408203</ele>
        <time>2013-04-07T15:55:11Z</time>
      </trkpt>
      <trkpt lat="43.61612" lon="7.06617">
        <ele>119.8214111</ele>
        <time>2013-04-07T15:55:13Z</time>
      </trkpt>
      <trkpt lat="43.61613" lon="7.06632">
        <ele>119.3408203</ele>
        <time>2013-04-07T15:55:18Z</time>
      </trkpt>
      <trkpt lat="43.61612" lon="7.06645">
        <ele>119.8214111</ele>
        <time>2013-04-07T15:55:22Z</time>
      </trkpt>
      <trkpt lat="43.61611" lon="7.06665">
        <ele>120.302124</ele>
        <time>2013-04-07T15:55:28Z</time>
      </trkpt>
      <trkpt lat="43.61611" lon="7.06682">
        <ele>121.2635498</ele>
        <time>2013-04-07T15:55:33Z</time>
      </trkpt>
      <trkpt lat="43.6161" lon="7.067">
        <ele>121.7441406</ele>
        <time>2013-04-07T15:55:39Z</time>
      </trkpt>
      <trkpt lat="43.61611" lon="7.0672">
        <ele>122.7054443</ele>
        <time>2013-04-07T15:55:45Z</time>
      </trkpt>
      <trkpt lat="43.61612" lon="7.06741">
        <ele>123.1861572</ele>
        <time>2013-04-07T15:55:52Z</time>
      </trkpt>
      <trkpt lat="43.61613" lon="7.06753">
        <ele>125.1087646</ele>
        <time>2013-04-07T15:55:56Z</time>
      </trkpt>
      <trkpt lat="43.61617" lon="7.06768">
        <ele>125.5893555</ele>
        <time>2013-04-07T15:56:01Z</time>
      </trkpt>
      <trkpt lat="43.61617" lon="7.0679">
        <ele>124.6280518</ele>
        <time>2013-04-07T15:56:08Z</time>
      </trkpt>
      <trkpt lat="43.61617" lon="7.06793">
        <ele>124.6280518</ele>
        <time>2013-04-07T15:56:09Z</time>
      </trkpt>
      <trkpt lat="43.61618" lon="7.06806">
        <ele>124.1473389</ele>
        <time>2013-04-07T15:56:13Z</time>
      </trkpt>
      <trkpt lat="43.61622" lon="7.06823">
        <ele>123.1861572</ele>
        <time>2013-04-07T15:56:19Z</time>
      </trkpt>
      <trkpt lat="43.61626" lon="7.06838">
        <ele>124.6280518</ele>
        <time>2013-04-07T15:56:24Z</time>
      </trkpt>
      <trkpt lat="43.61633" lon="7.06855">
        <ele>126.0699463</ele>
        <time>2013-04-07T15:56:30Z</time>
      </trkpt>
      <trkpt lat="43.61635" lon="7.06866">
        <ele>126.0699463</ele>
        <time>2013-04-07T15:56:34Z</time>
      </trkpt>
      <trkpt lat="43.61636" lon="7.06869">
        <ele>126.0699463</ele>
        <time>2013-04-07T15:56:35Z</time>
      </trkpt>
      <trkpt lat="43.61641" lon="7.06886">
        <ele>124.6280518</ele>
        <time>2013-04-07T15:56:41Z</time>
      </trkpt>
      <trkpt lat="43.61644" lon="7.06899">
        <ele>123.666748</ele>
        <time>2013-04-07T15:56:46Z</time>
      </trkpt>
      <trkpt lat="43.61654" lon="7.06913">
        <ele>123.666748</ele>
        <time>2013-04-07T15:56:52Z</time>
      </trkpt>
      <trkpt lat="43.61664" lon="7.06919">
        <ele>124.1473389</ele>
        <time>2013-04-07T15:56:56Z</time>
      </trkpt>
      <trkpt lat="43.61674" lon="7.06929">
        <ele>124.1473389</ele>
        <time>2013-04-07T15:57:02Z</time>
      </trkpt>
      <trkpt lat="43.61684" lon="7.06946">
        <ele>124.1473389</ele>
        <time>2013-04-07T15:57:09Z</time>
      </trkpt>
      <trkpt lat="43.61691" lon="7.06963">
        <ele>125.5893555</ele>
        <time>2013-04-07T15:57:15Z</time>
      </trkpt>
      <trkpt lat="43.61696" lon="7.06982">
        <ele>125.1087646</ele>
        <time>2013-04-07T15:57:21Z</time>
      </trkpt>
      <trkpt lat="43.61698" lon="7.06992">
        <ele>125.1087646</ele>
        <time>2013-04-07T15:57:24Z</time>
      </trkpt>
      <trkpt lat="43.61695" lon="7.07006">
        <ele>124.6280518</ele>
        <time>2013-04-07T15:57:29Z</time>
      </trkpt>
      <trkpt lat="43.61699" lon="7.07031">
        <ele>124.1473389</ele>
        <time>2013-04-07T15:57:36Z</time>
      </trkpt>
      <trkpt lat="43.61701" lon="7.07049">
        <ele>125.5893555</ele>
        <time>2013-04-07T15:57:41Z</time>
      </trkpt>
      <trkpt lat="43.61704" lon="7.07067">
        <ele>127.5119629</ele>
        <time>2013-04-07T15:57:46Z</time>
      </trkpt>
      <trkpt lat="43.61704" lon="7.07076">
        <ele>127.0313721</ele>
        <time>2013-04-07T15:57:49Z</time>
      </trkpt>
      <trkpt lat="43.61703" lon="7.07092">
        <ele>127.5119629</ele>
        <time>2013-04-07T15:57:54Z</time>
      </trkpt>
      <trkpt lat="43.61703" lon="7.07096">
        <ele>127.9925537</ele>
        <time>2013-04-07T15:57:55Z</time>
      </trkpt>
      <trkpt lat="43.61703" lon="7.07123">
        <ele>126.5506592</ele>
        <time>2013-04-07T15:58:03Z</time>
      </trkpt>
      <trkpt lat="43.61702" lon="7.07136">
        <ele>125.1087646</ele>
        <time>2013-04-07T15:58:07Z</time>
      </trkpt>
      <trkpt lat="43.61702" lon="7.07162">
        <ele>124.6280518</ele>
        <time>2013-04-07T15:58:15Z</time>
      </trkpt>
      <trkpt lat="43.61703" lon="7.07181">
        <ele>125.5893555</ele>
        <time>2013-04-07T15:58:21Z</time>
      </trkpt>
      <trkpt lat="43.61697" lon="7.07206">
        <ele>124.1473389</ele>
        <time>2013-04-07T15:58:29Z</time>
      </trkpt>
      <trkpt lat="43.61693" lon="7.07216">
        <ele>124.1473389</ele>
        <time>2013-04-07T15:58:32Z</time>
      </trkpt>
      <trkpt lat="43.61694" lon="7.07226">
        <ele>123.1861572</ele>
        <time>2013-04-07T15:58:36Z</time>
      </trkpt>
      <trkpt lat="43.61688" lon="7.07235">
        <ele>120.302124</ele>
        <time>2013-04-07T15:58:40Z</time>
      </trkpt>
      <trkpt lat="43.61684" lon="7.07243">
        <ele>118.8601074</ele>
        <time>2013-04-07T15:58:43Z</time>
      </trkpt>
      <trkpt lat="43.61679" lon="7.07251">
        <ele>119.3408203</ele>
        <time>2013-04-07T15:58:46Z</time>
      </trkpt>
      <trkpt lat="43.61672" lon="7.07272">
        <ele>115.0148926</ele>
        <time>2013-04-07T15:58:52Z</time>
      </trkpt>
      <trkpt lat="43.61671" lon="7.07279">
        <ele>114.0535889</ele>
        <time>2013-04-07T15:58:54Z</time>
      </trkpt>
      <trkpt lat="43.61666" lon="7.07296">
        <ele>110.6888428</ele>
        <time>2013-04-07T15:58:59Z</time>
      </trkpt>
      <trkpt lat="43.61664" lon="7.0731">
        <ele>108.2856445</ele>
        <time>2013-04-07T15:59:03Z</time>
      </trkpt>
      <trkpt lat="43.61663" lon="7.07335">
        <ele>105.8824463</ele>
        <time>2013-04-07T15:59:10Z</time>
      </trkpt>
      <trkpt lat="43.61661" lon="7.07356">
        <ele>105.4017334</ele>
        <time>2013-04-07T15:59:16Z</time>
      </trkpt>
      <trkpt lat="43.6166" lon="7.0736">
        <ele>105.4017334</ele>
        <time>2013-04-07T15:59:17Z</time>
      </trkpt>
      <trkpt lat="43.6166" lon="7.07377">
        <ele>105.4017334</ele>
        <time>2013-04-07T15:59:22Z</time>
      </trkpt>
      <trkpt lat="43.6166" lon="7.07397">
        <ele>108.7662354</ele>
        <time>2013-04-07T15:59:27Z</time>
      </trkpt>
      <trkpt lat="43.61657" lon="7.07414">
        <ele>110.208252</ele>
        <time>2013-04-07T15:59:32Z</time>
      </trkpt>
      <trkpt lat="43.61654" lon="7.07431">
        <ele>110.6888428</ele>
        <time>2013-04-07T15:59:37Z</time>
      </trkpt>
      <trkpt lat="43.61651" lon="7.07452">
        <ele>111.6502686</ele>
        <time>2013-04-07T15:59:43Z</time>
      </trkpt>
      <trkpt lat="43.61647" lon="7.07473">
        <ele>111.6502686</ele>
        <time>2013-04-07T15:59:49Z</time>
      </trkpt>
      <trkpt lat="43.6164" lon="7.07489">
        <ele>110.208252</ele>
        <time>2013-04-07T15:59:55Z</time>
      </trkpt>
      <trkpt lat="43.61636" lon="7.075">
        <ele>109.2469482</ele>
        <time>2013-04-07T15:59:59Z</time>
      </trkpt>
      <trkpt lat="43.6163" lon="7.07513">
        <ele>107.3243408</ele>
        <time>2013-04-07T16:00:04Z</time>
      </trkpt>
      <trkpt lat="43.61623" lon="7.07533">
        <ele>105.8824463</ele>
        <time>2013-04-07T16:00:11Z</time>
      </trkpt>
      <trkpt lat="43.61621" lon="7.07535">
        <ele>105.4017334</ele>
        <time>2013-04-07T16:00:12Z</time>
      </trkpt>
      <trkpt lat="43.61616" lon="7.07556">
        <ele>102.998291</ele>
        <time>2013-04-07T16:00:19Z</time>
      </trkpt>
      <trkpt lat="43.61614" lon="7.07575">
        <ele>101.5563965</ele>
        <time>2013-04-07T16:00:25Z</time>
      </trkpt>
      <trkpt lat="43.61613" lon="7.07578">
        <ele>101.0756836</ele>
        <time>2013-04-07T16:00:26Z</time>
      </trkpt>
      <trkpt lat="43.61612" lon="7.07584">
        <ele>101.0756836</ele>
        <time>2013-04-07T16:00:28Z</time>
      </trkpt>
      <trkpt lat="43.61605" lon="7.07607">
        <ele>107.8050537</ele>
        <time>2013-04-07T16:00:34Z</time>
      </trkpt>
      <trkpt lat="43.61602" lon="7.0762">
        <ele>108.2856445</ele>
        <time>2013-04-07T16:00:38Z</time>
      </trkpt>
      <trkpt lat="43.61602" lon="7.07641">
        <ele>110.6888428</ele>
        <time>2013-04-07T16:00:44Z</time>
      </trkpt>
      <trkpt lat="43.616" lon="7.07665">
        <ele>110.6888428</ele>
        <time>2013-04-07T16:00:51Z</time>
      </trkpt>
      <trkpt lat="43.61597" lon="7.07683">
        <ele>113.0922852</ele>
        <time>2013-04-07T16:00:56Z</time>
      </trkpt>
      <trkpt lat="43.61594" lon="7.07703">
        <ele>112.6115723</ele>
        <time>2013-04-07T16:01:02Z</time>
      </trkpt>
      <trkpt lat="43.6159" lon="7.07719">
        <ele>115.9761963</ele>
        <time>2013-04-07T16:01:07Z</time>
      </trkpt>
      <trkpt lat="43.61585" lon="7.0773">
        <ele>114.0535889</ele>
        <time>2013-04-07T16:01:11Z</time>
      </trkpt>
      <trkpt lat="43.61579" lon="7.07745">
        <ele>111.1695557</ele>
        <time>2013-04-07T16:01:17Z</time>
      </trkpt>
      <trkpt lat="43.61569" lon="7.07756">
        <ele>108.2856445</ele>
        <time>2013-04-07T16:01:22Z</time>
      </trkpt>
      <trkpt lat="43.61561" lon="7.07768">
        <ele>103.4790039</ele>
        <time>2013-04-07T16:01:27Z</time>
      </trkpt>
      <trkpt lat="43.61557" lon="7.07779">
        <ele>106.3630371</ele>
        <time>2013-04-07T16:01:32Z</time>
      </trkpt>
      <trkpt lat="43.61556" lon="7.07781">
        <ele>107.3243408</ele>
        <time>2013-04-07T16:01:33Z</time>
      </trkpt>
      <trkpt lat="43.6155" lon="7.0779">
        <ele>105.4017334</ele>
        <time>2013-04-07T16:01:37Z</time>
      </trkpt>
      <trkpt lat="43.6154" lon="7.07807">
        <ele>102.5177002</ele>
        <time>2013-04-07T16:01:43Z</time>
      </trkpt>
      <trkpt lat="43.61539" lon="7.0781">
        <ele>102.998291</ele>
        <time>2013-04-07T16:01:44Z</time>
      </trkpt>
      <trkpt lat="43.61534" lon="7.07822">
        <ele>102.998291</ele>
        <time>2013-04-07T16:01:48Z</time>
      </trkpt>
      <trkpt lat="43.6153" lon="7.07839">
        <ele>105.8824463</ele>
        <time>2013-04-07T16:01:53Z</time>
      </trkpt>
      <trkpt lat="43.61525" lon="7.07849">
        <ele>108.7662354</ele>
        <time>2013-04-07T16:01:56Z</time>
      </trkpt>
      <trkpt lat="43.61524" lon="7.07852">
        <ele>109.2469482</ele>
        <time>2013-04-07T16:01:57Z</time>
      </trkpt>
      <trkpt lat="43.61521" lon="7.07862">
        <ele>111.6502686</ele>
        <time>2013-04-07T16:02:00Z</time>
      </trkpt>
      <trkpt lat="43.61515" lon="7.07878">
        <ele>111.6502686</ele>
        <time>2013-04-07T16:02:05Z</time>
      </trkpt>
      <trkpt lat="43.61514" lon="7.07882">
        <ele>112.6115723</ele>
        <time>2013-04-07T16:02:06Z</time>
      </trkpt>
      <trkpt lat="43.61509" lon="7.07902">
        <ele>115.0148926</ele>
        <time>2013-04-07T16:02:12Z</time>
      </trkpt>
      <trkpt lat="43.61506" lon="7.07918">
        <ele>115.0148926</ele>
        <time>2013-04-07T16:02:17Z</time>
      </trkpt>
      <trkpt lat="43.61502" lon="7.07938">
        <ele>115.4956055</ele>
        <time>2013-04-07T16:02:23Z</time>
      </trkpt>
      <trkpt lat="43.61501" lon="7.07955">
        <ele>115.4956055</ele>
        <time>2013-04-07T16:02:28Z</time>
      </trkpt>
      <trkpt lat="43.61499" lon="7.07976">
        <ele>115.0148926</ele>
        <time>2013-04-07T16:02:34Z</time>
      </trkpt>
      <trkpt lat="43.61496" lon="7.07996">
        <ele>115.0148926</ele>
        <time>2013-04-07T16:02:40Z</time>
      </trkpt>
      <trkpt lat="43.61496" lon="7.08013">
        <ele>115.0148926</ele>
        <time>2013-04-07T16:02:45Z</time>
      </trkpt>
      <trkpt lat="43.61496" lon="7.08033">
        <ele>115.9761963</ele>
        <time>2013-04-07T16:02:51Z</time>
      </trkpt>
      <trkpt lat="43.61493" lon="7.08045">
        <ele>116.4567871</ele>
        <time>2013-04-07T16:02:56Z</time>
      </trkpt>
      <trkpt lat="43.61491" lon="7.0806">
        <ele>117.4182129</ele>
        <time>2013-04-07T16:03:01Z</time>
      </trkpt>
      <trkpt lat="43.61496" lon="7.08071">
        <ele>117.8988037</ele>
        <time>2013-04-07T16:03:04Z</time>
      </trkpt>
      <trkpt lat="43.61498" lon="7.08075">
        <ele>117.4182129</ele>
        <time>2013-04-07T16:03:05Z</time>
      </trkpt>
      <trkpt lat="43.61505" lon="7.08093">
        <ele>115.9761963</ele>
        <time>2013-04-07T16:03:11Z</time>
      </trkpt>
      <trkpt lat="43.61508" lon="7.08099">
        <ele>115.4956055</ele>
        <time>2013-04-07T16:03:13Z</time>
      </trkpt>
      <trkpt lat="43.61518" lon="7.08115">
        <ele>115.0148926</ele>
        <time>2013-04-07T16:03:19Z</time>
      </trkpt>
      <trkpt lat="43.61527" lon="7.08128">
        <ele>114.5341797</ele>
        <time>2013-04-07T16:03:24Z</time>
      </trkpt>
      <trkpt lat="43.61531" lon="7.08139">
        <ele>114.0535889</ele>
        <time>2013-04-07T16:03:28Z</time>
      </trkpt>
      <trkpt lat="43.61532" lon="7.08142">
        <ele>113.572998</ele>
        <time>2013-04-07T16:03:29Z</time>
      </trkpt>
      <trkpt lat="43.61542" lon="7.0816">
        <ele>112.6115723</ele>
        <time>2013-04-07T16:03:35Z</time>
      </trkpt>
      <trkpt lat="43.61545" lon="7.08172">
        <ele>110.6888428</ele>
        <time>2013-04-07T16:03:39Z</time>
      </trkpt>
      <trkpt lat="43.6155" lon="7.08185">
        <ele>108.2856445</ele>
        <time>2013-04-07T16:03:44Z</time>
      </trkpt>
      <trkpt lat="43.61557" lon="7.08203">
        <ele>106.8436279</ele>
        <time>2013-04-07T16:03:50Z</time>
      </trkpt>
      <trkpt lat="43.61563" lon="7.08217">
        <ele>105.4017334</ele>
        <time>2013-04-07T16:03:55Z</time>
      </trkpt>
      <trkpt lat="43.61569" lon="7.08236">
        <ele>104.4404297</ele>
        <time>2013-04-07T16:04:01Z</time>
      </trkpt>
      <trkpt lat="43.61575" lon="7.08256">
        <ele>102.998291</ele>
        <time>2013-04-07T16:04:07Z</time>
      </trkpt>
      <trkpt lat="43.61581" lon="7.08271">
        <ele>102.998291</ele>
        <time>2013-04-07T16:04:12Z</time>
      </trkpt>
      <trkpt lat="43.61585" lon="7.08283">
        <ele>103.4790039</ele>
        <time>2013-04-07T16:04:15Z</time>
      </trkpt>
      <trkpt lat="43.61586" lon="7.08298">
        <ele>102.998291</ele>
        <time>2013-04-07T16:04:19Z</time>
      </trkpt>
      <trkpt lat="43.61589" lon="7.08317">
        <ele>102.5177002</ele>
        <time>2013-04-07T16:04:25Z</time>
      </trkpt>
      <trkpt lat="43.6159" lon="7.08323">
        <ele>102.0371094</ele>
        <time>2013-04-07T16:04:27Z</time>
      </trkpt>
      <trkpt lat="43.61597" lon="7.08328">
        <ele>102.0371094</ele>
        <time>2013-04-07T16:04:29Z</time>
      </trkpt>
      <trkpt lat="43.61603" lon="7.08339">
        <ele>101.5563965</ele>
        <time>2013-04-07T16:04:33Z</time>
      </trkpt>
      <trkpt lat="43.61609" lon="7.0835">
        <ele>101.0756836</ele>
        <time>2013-04-07T16:04:37Z</time>
      </trkpt>
      <trkpt lat="43.61615" lon="7.08363">
        <ele>98.1918945</ele>
        <time>2013-04-07T16:04:42Z</time>
      </trkpt>
      <trkpt lat="43.61625" lon="7.08377">
        <ele>98.6724854</ele>
        <time>2013-04-07T16:04:48Z</time>
      </trkpt>
      <trkpt lat="43.61635" lon="7.08387">
        <ele>98.1918945</ele>
        <time>2013-04-07T16:04:53Z</time>
      </trkpt>
      <trkpt lat="43.61645" lon="7.08398">
        <ele>98.6724854</ele>
        <time>2013-04-07T16:04:58Z</time>
      </trkpt>
      <trkpt lat="43.61654" lon="7.08412">
        <ele>98.1918945</ele>
        <time>2013-04-07T16:05:03Z</time>
      </trkpt>
      <trkpt lat="43.61661" lon="7.08426">
        <ele>98.1918945</ele>
        <time>2013-04-07T16:05:08Z</time>
      </trkpt>
      <trkpt lat="43.61669" lon="7.08437">
        <ele>97.2304688</ele>
        <time>2013-04-07T16:05:13Z</time>
      </trkpt>
      <trkpt lat="43.61675" lon="7.08447">
        <ele>96.7498779</ele>
        <time>2013-04-07T16:05:17Z</time>
      </trkpt>
      <trkpt lat="43.61684" lon="7.08461">
        <ele>95.7884521</ele>
        <time>2013-04-07T16:05:23Z</time>
      </trkpt>
      <trkpt lat="43.61696" lon="7.08476">
        <ele>91.4625244</ele>
        <time>2013-04-07T16:05:29Z</time>
      </trkpt>
      <trkpt lat="43.61698" lon="7.08477">
        <ele>90.5013428</ele>
        <time>2013-04-07T16:05:30Z</time>
      </trkpt>
      <trkpt lat="43.61708" lon="7.08492">
        <ele>85.6945801</ele>
        <time>2013-04-07T16:05:36Z</time>
      </trkpt>
      <trkpt lat="43.61718" lon="7.08507">
        <ele>79.4460449</ele>
        <time>2013-04-07T16:05:42Z</time>
      </trkpt>
      <trkpt lat="43.61727" lon="7.08517">
        <ele>77.0428467</ele>
        <time>2013-04-07T16:05:46Z</time>
      </trkpt>
      <trkpt lat="43.61738" lon="7.08533">
        <ele>76.0814209</ele>
        <time>2013-04-07T16:05:52Z</time>
      </trkpt>
      <trkpt lat="43.61739" lon="7.08536">
        <ele>76.0814209</ele>
        <time>2013-04-07T16:05:53Z</time>
      </trkpt>
      <trkpt lat="43.61743" lon="7.08559">
        <ele>77.5234375</ele>
        <time>2013-04-07T16:05:59Z</time>
      </trkpt>
      <trkpt lat="43.61742" lon="7.08562">
        <ele>78.0040283</ele>
        <time>2013-04-07T16:06:00Z</time>
      </trkpt>
      <trkpt lat="43.61741" lon="7.08568">
        <ele>78.9654541</ele>
        <time>2013-04-07T16:06:02Z</time>
      </trkpt>
      <trkpt lat="43.61742" lon="7.08584">
        <ele>80.8881836</ele>
        <time>2013-04-07T16:06:07Z</time>
      </trkpt>
      <trkpt lat="43.61735" lon="7.08601">
        <ele>84.2526855</ele>
        <time>2013-04-07T16:06:13Z</time>
      </trkpt>
      <trkpt lat="43.61735" lon="7.08619">
        <ele>85.2139893</ele>
        <time>2013-04-07T16:06:18Z</time>
      </trkpt>
      <trkpt lat="43.61734" lon="7.08623">
        <ele>84.7333984</ele>
        <time>2013-04-07T16:06:19Z</time>
      </trkpt>
      <trkpt lat="43.61735" lon="7.0864">
        <ele>88.0980225</ele>
        <time>2013-04-07T16:06:25Z</time>
      </trkpt>
      <trkpt lat="43.61735" lon="7.08644">
        <ele>89.0593262</ele>
        <time>2013-04-07T16:06:26Z</time>
      </trkpt>
      <trkpt lat="43.61739" lon="7.08665">
        <ele>90.9819336</ele>
        <time>2013-04-07T16:06:33Z</time>
      </trkpt>
      <trkpt lat="43.61744" lon="7.08679">
        <ele>92.4239502</ele>
        <time>2013-04-07T16:06:37Z</time>
      </trkpt>
      <trkpt lat="43.61748" lon="7.08692">
        <ele>94.8271484</ele>
        <time>2013-04-07T16:06:41Z</time>
      </trkpt>
      <trkpt lat="43.61749" lon="7.08701">
        <ele>95.3077393</ele>
        <time>2013-04-07T16:06:44Z</time>
      </trkpt>
      <trkpt lat="43.6175" lon="7.08707">
        <ele>95.3077393</ele>
        <time>2013-04-07T16:06:46Z</time>
      </trkpt>
      <trkpt lat="43.61753" lon="7.08724">
        <ele>92.4239502</ele>
        <time>2013-04-07T16:06:52Z</time>
      </trkpt>
      <trkpt lat="43.61757" lon="7.0874">
        <ele>92.904541</ele>
        <time>2013-04-07T16:06:57Z</time>
      </trkpt>
      <trkpt lat="43.61762" lon="7.08756">
        <ele>90.5013428</ele>
        <time>2013-04-07T16:07:03Z</time>
      </trkpt>
      <trkpt lat="43.61766" lon="7.08767">
        <ele>87.1365967</ele>
        <time>2013-04-07T16:07:07Z</time>
      </trkpt>
      <trkpt lat="43.61768" lon="7.08785">
        <ele>82.810791</ele>
        <time>2013-04-07T16:07:13Z</time>
      </trkpt>
      <trkpt lat="43.61768" lon="7.08792">
        <ele>84.2526855</ele>
        <time>2013-04-07T16:07:15Z</time>
      </trkpt>
      <trkpt lat="43.61773" lon="7.0881">
        <ele>82.810791</ele>
        <time>2013-04-07T16:07:21Z</time>
      </trkpt>
      <trkpt lat="43.61774" lon="7.08827">
        <ele>83.7719727</ele>
        <time>2013-04-07T16:07:26Z</time>
      </trkpt>
      <trkpt lat="43.61774" lon="7.0883">
        <ele>83.7719727</ele>
        <time>2013-04-07T16:07:27Z</time>
      </trkpt>
      <trkpt lat="43.61775" lon="7.08841">
        <ele>84.2526855</ele>
        <time>2013-04-07T16:07:30Z</time>
      </trkpt>
      <trkpt lat="43.6178" lon="7.08859">
        <ele>84.2526855</ele>
        <time>2013-04-07T16:07:36Z</time>
      </trkpt>
      <trkpt lat="43.61782" lon="7.08869">
        <ele>83.7719727</ele>
        <time>2013-04-07T16:07:39Z</time>
      </trkpt>
      <trkpt lat="43.61787" lon="7.0889">
        <ele>85.2139893</ele>
        <time>2013-04-07T16:07:45Z</time>
      </trkpt>
      <trkpt lat="43.61794" lon="7.08902">
        <ele>86.175293</ele>
        <time>2013-04-07T16:07:49Z</time>
      </trkpt>
      <trkpt lat="43.61798" lon="7.08913">
        <ele>83.7719727</ele>
        <time>2013-04-07T16:07:53Z</time>
      </trkpt>
      <trkpt lat="43.61806" lon="7.08926">
        <ele>85.6945801</ele>
        <time>2013-04-07T16:07:59Z</time>
      </trkpt>
      <trkpt lat="43.61809" lon="7.08941">
        <ele>89.0593262</ele>
        <time>2013-04-07T16:08:04Z</time>
      </trkpt>
      <trkpt lat="43.61812" lon="7.08951">
        <ele>89.0593262</ele>
        <time>2013-04-07T16:08:07Z</time>
      </trkpt>
      <trkpt lat="43.61814" lon="7.0896">
        <ele>89.539917</ele>
        <time>2013-04-07T16:08:10Z</time>
      </trkpt>
      <trkpt lat="43.61813" lon="7.08975">
        <ele>84.2526855</ele>
        <time>2013-04-07T16:08:15Z</time>
      </trkpt>
      <trkpt lat="43.61812" lon="7.08991">
        <ele>80.8881836</ele>
        <time>2013-04-07T16:08:21Z</time>
      </trkpt>
      <trkpt lat="43.61812" lon="7.09008">
        <ele>79.4460449</ele>
        <time>2013-04-07T16:08:26Z</time>
      </trkpt>
      <trkpt lat="43.6181" lon="7.09029">
        <ele>78.0040283</ele>
        <time>2013-04-07T16:08:32Z</time>
      </trkpt>
      <trkpt lat="43.61815" lon="7.09044">
        <ele>78.9654541</ele>
        <time>2013-04-07T16:08:36Z</time>
      </trkpt>
      <trkpt lat="43.6182" lon="7.09055">
        <ele>79.4460449</ele>
        <time>2013-04-07T16:08:40Z</time>
      </trkpt>
      <trkpt lat="43.61821" lon="7.09057">
        <ele>79.9266357</ele>
        <time>2013-04-07T16:08:41Z</time>
      </trkpt>
      <trkpt lat="43.61821" lon="7.09075">
        <ele>79.9266357</ele>
        <time>2013-04-07T16:08:47Z</time>
      </trkpt>
      <trkpt lat="43.61826" lon="7.09097">
        <ele>85.2139893</ele>
        <time>2013-04-07T16:08:54Z</time>
      </trkpt>
      <trkpt lat="43.6183" lon="7.09108">
        <ele>83.7719727</ele>
        <time>2013-04-07T16:08:59Z</time>
      </trkpt>
      <trkpt lat="43.61836" lon="7.09119">
        <ele>83.2913818</ele>
        <time>2013-04-07T16:09:03Z</time>
      </trkpt>
      <trkpt lat="43.61841" lon="7.09136">
        <ele>80.4074707</ele>
        <time>2013-04-07T16:09:09Z</time>
      </trkpt>
      <trkpt lat="43.61848" lon="7.09154">
        <ele>76.5621338</ele>
        <time>2013-04-07T16:09:16Z</time>
      </trkpt>
      <trkpt lat="43.61851" lon="7.09167">
        <ele>75.1202393</ele>
        <time>2013-04-07T16:09:21Z</time>
      </trkpt>
      <trkpt lat="43.61858" lon="7.09181">
        <ele>72.7169189</ele>
        <time>2013-04-07T16:09:26Z</time>
      </trkpt>
      <trkpt lat="43.61863" lon="7.092">
        <ele>71.7554932</ele>
        <time>2013-04-07T16:09:32Z</time>
      </trkpt>
      <trkpt lat="43.61866" lon="7.09216">
        <ele>70.3134766</ele>
        <time>2013-04-07T16:09:37Z</time>
      </trkpt>
      <trkpt lat="43.61866" lon="7.09228">
        <ele>71.2749023</ele>
        <time>2013-04-07T16:09:41Z</time>
      </trkpt>
      <trkpt lat="43.6187" lon="7.09255">
        <ele>70.7941895</ele>
        <time>2013-04-07T16:09:49Z</time>
      </trkpt>
      <trkpt lat="43.61872" lon="7.09264">
        <ele>69.3522949</ele>
        <time>2013-04-07T16:09:52Z</time>
      </trkpt>
      <trkpt lat="43.61872" lon="7.09279">
        <ele>69.3522949</ele>
        <time>2013-04-07T16:09:56Z</time>
      </trkpt>
      <trkpt lat="43.61875" lon="7.09295">
        <ele>69.3522949</ele>
        <time>2013-04-07T16:10:01Z</time>
      </trkpt>
      <trkpt lat="43.61883" lon="7.09315">
        <ele>71.2749023</ele>
        <time>2013-04-07T16:10:08Z</time>
      </trkpt>
      <trkpt lat="43.61888" lon="7.0933">
        <ele>70.7941895</ele>
        <time>2013-04-07T16:10:13Z</time>
      </trkpt>
      <trkpt lat="43.61896" lon="7.09348">
        <ele>70.7941895</ele>
        <time>2013-04-07T16:10:19Z</time>
      </trkpt>
      <trkpt lat="43.61904" lon="7.09366">
        <ele>69.8328857</ele>
        <time>2013-04-07T16:10:25Z</time>
      </trkpt>
      <trkpt lat="43.6191" lon="7.0938">
        <ele>70.3134766</ele>
        <time>2013-04-07T16:10:30Z</time>
      </trkpt>
      <trkpt lat="43.61912" lon="7.09385">
        <ele>69.8328857</ele>
        <time>2013-04-07T16:10:32Z</time>
      </trkpt>
      <trkpt lat="43.61916" lon="7.09401">
        <ele>67.9102783</ele>
        <time>2013-04-07T16:10:37Z</time>
      </trkpt>
      <trkpt lat="43.61919" lon="7.09409">
        <ele>65.5070801</ele>
        <time>2013-04-07T16:10:40Z</time>
      </trkpt>
      <trkpt lat="43.61929" lon="7.09426">
        <ele>64.0650635</ele>
        <time>2013-04-07T16:10:47Z</time>
      </trkpt>
      <trkpt lat="43.6194" lon="7.09439">
        <ele>63.1036377</ele>
        <time>2013-04-07T16:10:53Z</time>
      </trkpt>
      <trkpt lat="43.61949" lon="7.09447">
        <ele>62.142334</ele>
        <time>2013-04-07T16:10:58Z</time>
      </trkpt>
      <trkpt lat="43.61958" lon="7.09458">
        <ele>64.0650635</ele>
        <time>2013-04-07T16:11:03Z</time>
      </trkpt>
      <trkpt lat="43.61967" lon="7.09468">
        <ele>62.142334</ele>
        <time>2013-04-07T16:11:08Z</time>
      </trkpt>
      <trkpt lat="43.61978" lon="7.09477">
        <ele>62.6229248</ele>
        <time>2013-04-07T16:11:14Z</time>
      </trkpt>
      <trkpt lat="43.6198" lon="7.09477">
        <ele>62.142334</ele>
        <time>2013-04-07T16:11:15Z</time>
      </trkpt>
      <trkpt lat="43.6199" lon="7.09485">
        <ele>63.1036377</ele>
        <time>2013-04-07T16:11:20Z</time>
      </trkpt>
      <trkpt lat="43.62002" lon="7.09489">
        <ele>63.5843506</ele>
        <time>2013-04-07T16:11:25Z</time>
      </trkpt>
      <trkpt lat="43.62011" lon="7.09493">
        <ele>63.1036377</ele>
        <time>2013-04-07T16:11:30Z</time>
      </trkpt>
      <trkpt lat="43.62017" lon="7.09496">
        <ele>62.6229248</ele>
        <time>2013-04-07T16:11:32Z</time>
      </trkpt>
      <trkpt lat="43.62032" lon="7.09506">
        <ele>63.5843506</ele>
        <time>2013-04-07T16:11:39Z</time>
      </trkpt>
      <trkpt lat="43.62039" lon="7.09511">
        <ele>63.1036377</ele>
        <time>2013-04-07T16:11:42Z</time>
      </trkpt>
      <trkpt lat="43.62051" lon="7.09525">
        <ele>59.2584229</ele>
        <time>2013-04-07T16:11:48Z</time>
      </trkpt>
      <trkpt lat="43.62064" lon="7.09541">
        <ele>60.2197266</ele>
        <time>2013-04-07T16:11:54Z</time>
      </trkpt>
      <trkpt lat="43.62067" lon="7.09558">
        <ele>56.8551025</ele>
        <time>2013-04-07T16:12:00Z</time>
      </trkpt>
      <trkpt lat="43.62067" lon="7.09562">
        <ele>55.8937988</ele>
        <time>2013-04-07T16:12:01Z</time>
      </trkpt>
      <trkpt lat="43.62068" lon="7.09578">
        <ele>54.4517822</ele>
        <time>2013-04-07T16:12:06Z</time>
      </trkpt>
      <trkpt lat="43.62067" lon="7.09581">
        <ele>54.4517822</ele>
        <time>2013-04-07T16:12:07Z</time>
      </trkpt>
      <trkpt lat="43.62066" lon="7.09606">
        <ele>55.8937988</ele>
        <time>2013-04-07T16:12:14Z</time>
      </trkpt>
      <trkpt lat="43.62066" lon="7.09609">
        <ele>55.8937988</ele>
        <time>2013-04-07T16:12:15Z</time>
      </trkpt>
      <trkpt lat="43.62062" lon="7.09627">
        <ele>56.3745117</ele>
        <time>2013-04-07T16:12:21Z</time>
      </trkpt>
      <trkpt lat="43.62061" lon="7.09634">
        <ele>56.3745117</ele>
        <time>2013-04-07T16:12:24Z</time>
      </trkpt>
      <trkpt lat="43.62064" lon="7.09636">
        <ele>56.8551025</ele>
        <time>2013-04-07T16:12:28Z</time>
      </trkpt>
      <trkpt lat="43.62065" lon="7.09633">
        <ele>55.8937988</ele>
        <time>2013-04-07T16:12:30Z</time>
      </trkpt>
      <trkpt lat="43.62072" lon="7.0962">
        <ele>56.3745117</ele>
        <time>2013-04-07T16:12:36Z</time>
      </trkpt>
      <trkpt lat="43.62081" lon="7.09606">
        <ele>57.3358154</ele>
        <time>2013-04-07T16:12:42Z</time>
      </trkpt>
      <trkpt lat="43.62087" lon="7.09594">
        <ele>58.2971191</ele>
        <time>2013-04-07T16:12:47Z</time>
      </trkpt>
      <trkpt lat="43.62093" lon="7.09578">
        <ele>59.7391357</ele>
        <time>2013-04-07T16:12:53Z</time>
      </trkpt>
      <trkpt lat="43.62096" lon="7.09567">
        <ele>61.6617432</ele>
        <time>2013-04-07T16:12:57Z</time>
      </trkpt>
      <trkpt lat="43.62097" lon="7.09566">
        <ele>61.1810303</ele>
        <time>2013-04-07T16:12:58Z</time>
      </trkpt>
      <trkpt lat="43.62101" lon="7.09553">
        <ele>59.2584229</ele>
        <time>2013-04-07T16:13:04Z</time>
      </trkpt>
      <trkpt lat="43.62103" lon="7.09539">
        <ele>58.77771</ele>
        <time>2013-04-07T16:13:09Z</time>
      </trkpt>
      <trkpt lat="43.62105" lon="7.09534">
        <ele>58.77771</ele>
        <time>2013-04-07T16:13:11Z</time>
      </trkpt>
      <trkpt lat="43.62106" lon="7.09526">
        <ele>59.2584229</ele>
        <time>2013-04-07T16:13:14Z</time>
      </trkpt>
      <trkpt lat="43.62106" lon="7.09521">
        <ele>59.7391357</ele>
        <time>2013-04-07T16:13:16Z</time>
      </trkpt>
      <trkpt lat="43.62107" lon="7.09509">
        <ele>61.1810303</ele>
        <time>2013-04-07T16:13:20Z</time>
      </trkpt>
      <trkpt lat="43.62106" lon="7.09487">
        <ele>64.0650635</ele>
        <time>2013-04-07T16:13:27Z</time>
      </trkpt>
      <trkpt lat="43.62104" lon="7.09474">
        <ele>65.0263672</ele>
        <time>2013-04-07T16:13:32Z</time>
      </trkpt>
      <trkpt lat="43.62102" lon="7.0946">
        <ele>65.0263672</ele>
        <time>2013-04-07T16:13:37Z</time>
      </trkpt>
      <trkpt lat="43.62101" lon="7.09444">
        <ele>68.3908691</ele>
        <time>2013-04-07T16:13:43Z</time>
      </trkpt>
      <trkpt lat="43.621" lon="7.09431">
        <ele>69.3522949</ele>
        <time>2013-04-07T16:13:48Z</time>
      </trkpt>
      <trkpt lat="43.621" lon="7.09428">
        <ele>68.871582</ele>
        <time>2013-04-07T16:13:49Z</time>
      </trkpt>
      <trkpt lat="43.62101" lon="7.09408">
        <ele>71.2749023</ele>
        <time>2013-04-07T16:13:56Z</time>
      </trkpt>
      <trkpt lat="43.62102" lon="7.09391">
        <ele>73.6782227</ele>
        <time>2013-04-07T16:14:02Z</time>
      </trkpt>
      <trkpt lat="43.62101" lon="7.09381">
        <ele>74.1588135</ele>
        <time>2013-04-07T16:14:06Z</time>
      </trkpt>
      <trkpt lat="43.62101" lon="7.0937">
        <ele>77.5234375</ele>
        <time>2013-04-07T16:14:11Z</time>
      </trkpt>
      <trkpt lat="43.621" lon="7.09358">
        <ele>83.2913818</ele>
        <time>2013-04-07T16:14:15Z</time>
      </trkpt>
      <trkpt lat="43.62098" lon="7.09354">
        <ele>83.7719727</ele>
        <time>2013-04-07T16:14:17Z</time>
      </trkpt>
      <trkpt lat="43.62096" lon="7.09338">
        <ele>84.7333984</ele>
        <time>2013-04-07T16:14:22Z</time>
      </trkpt>
      <trkpt lat="43.62095" lon="7.09321">
        <ele>88.0980225</ele>
        <time>2013-04-07T16:14:28Z</time>
      </trkpt>
      <trkpt lat="43.62095" lon="7.09314">
        <ele>88.5787354</ele>
        <time>2013-04-07T16:14:31Z</time>
      </trkpt>
      <trkpt lat="43.62093" lon="7.09299">
        <ele>87.1365967</ele>
        <time>2013-04-07T16:14:37Z</time>
      </trkpt>
      <trkpt lat="43.62093" lon="7.09294">
        <ele>87.1365967</ele>
        <time>2013-04-07T16:14:39Z</time>
      </trkpt>
      <trkpt lat="43.62091" lon="7.09284">
        <ele>88.0980225</ele>
        <time>2013-04-07T16:14:43Z</time>
      </trkpt>
      <trkpt lat="43.62091" lon="7.09278">
        <ele>89.0593262</ele>
        <time>2013-04-07T16:14:45Z</time>
      </trkpt>
      <trkpt lat="43.6209" lon="7.09264">
        <ele>90.5013428</ele>
        <time>2013-04-07T16:14:50Z</time>
      </trkpt>
      <trkpt lat="43.62085" lon="7.09249">
        <ele>91.9432373</ele>
        <time>2013-04-07T16:14:55Z</time>
      </trkpt>
      <trkpt lat="43.62082" lon="7.09237">
        <ele>92.904541</ele>
        <time>2013-04-07T16:14:59Z</time>
      </trkpt>
      <trkpt lat="43.62078" lon="7.09227">
        <ele>92.904541</ele>
        <time>2013-04-07T16:15:03Z</time>
      </trkpt>
      <trkpt lat="43.62073" lon="7.09219">
        <ele>92.4239502</ele>
        <time>2013-04-07T16:15:07Z</time>
      </trkpt>
      <trkpt lat="43.62072" lon="7.09216">
        <ele>92.904541</ele>
        <time>2013-04-07T16:15:08Z</time>
      </trkpt>
      <trkpt lat="43.62068" lon="7.09204">
        <ele>93.8658447</ele>
        <time>2013-04-07T16:15:13Z</time>
      </trkpt>
      <trkpt lat="43.62064" lon="7.09192">
        <ele>93.8658447</ele>
        <time>2013-04-07T16:15:17Z</time>
      </trkpt>
      <trkpt lat="43.62059" lon="7.09181">
        <ele>93.8658447</ele>
        <time>2013-04-07T16:15:23Z</time>
      </trkpt>
      <trkpt lat="43.62057" lon="7.09178">
        <ele>94.3465576</ele>
        <time>2013-04-07T16:15:25Z</time>
      </trkpt>
      <trkpt lat="43.62052" lon="7.0917">
        <ele>94.8271484</ele>
        <time>2013-04-07T16:15:29Z</time>
      </trkpt>
      <trkpt lat="43.62047" lon="7.09162">
        <ele>95.7884521</ele>
        <time>2013-04-07T16:15:34Z</time>
      </trkpt>
      <trkpt lat="43.62042" lon="7.09152">
        <ele>98.6724854</ele>
        <time>2013-04-07T16:15:39Z</time>
      </trkpt>
      <trkpt lat="43.6204" lon="7.09145">
        <ele>100.5950928</ele>
        <time>2013-04-07T16:15:42Z</time>
      </trkpt>
      <trkpt lat="43.62037" lon="7.09139">
        <ele>102.5177002</ele>
        <time>2013-04-07T16:15:45Z</time>
      </trkpt>
      <trkpt lat="43.6203" lon="7.09129">
        <ele>104.9210205</ele>
        <time>2013-04-07T16:15:51Z</time>
      </trkpt>
      <trkpt lat="43.62025" lon="7.09121">
        <ele>106.3630371</ele>
        <time>2013-04-07T16:15:55Z</time>
      </trkpt>
      <trkpt lat="43.6202" lon="7.09109">
        <ele>106.8436279</ele>
        <time>2013-04-07T16:16:00Z</time>
      </trkpt>
      <trkpt lat="43.62014" lon="7.09099">
        <ele>106.8436279</ele>
        <time>2013-04-07T16:16:05Z</time>
      </trkpt>
      <trkpt lat="43.62008" lon="7.09089">
        <ele>105.8824463</ele>
        <time>2013-04-07T16:16:09Z</time>
      </trkpt>
      <trkpt lat="43.62002" lon="7.09075">
        <ele>108.2856445</ele>
        <time>2013-04-07T16:16:15Z</time>
      </trkpt>
      <trkpt lat="43.61991" lon="7.09056">
        <ele>111.6502686</ele>
        <time>2013-04-07T16:16:24Z</time>
      </trkpt>
      <trkpt lat="43.61984" lon="7.09045">
        <ele>113.0922852</ele>
        <time>2013-04-07T16:16:29Z</time>
      </trkpt>
      <trkpt lat="43.61977" lon="7.09035">
        <ele>114.0535889</ele>
        <time>2013-04-07T16:16:34Z</time>
      </trkpt>
      <trkpt lat="43.61972" lon="7.09023">
        <ele>115.9761963</ele>
        <time>2013-04-07T16:16:39Z</time>
      </trkpt>
      <trkpt lat="43.61966" lon="7.09012">
        <ele>115.9761963</ele>
        <time>2013-04-07T16:16:44Z</time>
      </trkpt>
      <trkpt lat="43.6196" lon="7.08999">
        <ele>116.4567871</ele>
        <time>2013-04-07T16:16:50Z</time>
      </trkpt>
      <trkpt lat="43.61959" lon="7.08988">
        <ele>115.9761963</ele>
        <time>2013-04-07T16:16:54Z</time>
      </trkpt>
      <trkpt lat="43.61957" lon="7.08974">
        <ele>114.5341797</ele>
        <time>2013-04-07T16:17:00Z</time>
      </trkpt>
      <trkpt lat="43.61954" lon="7.08958">
        <ele>114.5341797</ele>
        <time>2013-04-07T16:17:06Z</time>
      </trkpt>
      <trkpt lat="43.61954" lon="7.08956">
        <ele>115.0148926</ele>
        <time>2013-04-07T16:17:07Z</time>
      </trkpt>
      <trkpt lat="43.61954" lon="7.08949">
        <ele>115.0148926</ele>
        <time>2013-04-07T16:17:10Z</time>
      </trkpt>
      <trkpt lat="43.61952" lon="7.08939">
        <ele>114.5341797</ele>
        <time>2013-04-07T16:17:14Z</time>
      </trkpt>
      <trkpt lat="43.6195" lon="7.08934">
        <ele>114.0535889</ele>
        <time>2013-04-07T16:17:16Z</time>
      </trkpt>
      <trkpt lat="43.61948" lon="7.08919">
        <ele>113.572998</ele>
        <time>2013-04-07T16:17:22Z</time>
      </trkpt>
      <trkpt lat="43.61946" lon="7.08904">
        <ele>115.4956055</ele>
        <time>2013-04-07T16:17:27Z</time>
      </trkpt>
      <trkpt lat="43.61948" lon="7.08892">
        <ele>115.9761963</ele>
        <time>2013-04-07T16:17:32Z</time>
      </trkpt>
      <trkpt lat="43.61948" lon="7.08889">
        <ele>116.4567871</ele>
        <time>2013-04-07T16:17:33Z</time>
      </trkpt>
      <trkpt lat="43.6195" lon="7.08864">
        <ele>116.4567871</ele>
        <time>2013-04-07T16:17:41Z</time>
      </trkpt>
      <trkpt lat="43.6195" lon="7.08861">
        <ele>116.4567871</ele>
        <time>2013-04-07T16:17:42Z</time>
      </trkpt>
      <trkpt lat="43.61952" lon="7.08851">
        <ele>116.4567871</ele>
        <time>2013-04-07T16:17:46Z</time>
      </trkpt>
      <trkpt lat="43.61953" lon="7.08832">
        <ele>116.4567871</ele>
        <time>2013-04-07T16:17:52Z</time>
      </trkpt>
      <trkpt lat="43.61954" lon="7.08811">
        <ele>117.4182129</ele>
        <time>2013-04-07T16:17:58Z</time>
      </trkpt>
      <trkpt lat="43.61955" lon="7.08802">
        <ele>117.8988037</ele>
        <time>2013-04-07T16:18:01Z</time>
      </trkpt>
      <trkpt lat="43.61958" lon="7.08795">
        <ele>117.8988037</ele>
        <time>2013-04-07T16:18:04Z</time>
      </trkpt>
      <trkpt lat="43.61961" lon="7.08779">
        <ele>117.4182129</ele>
        <time>2013-04-07T16:18:09Z</time>
      </trkpt>
      <trkpt lat="43.61961" lon="7.08762">
        <ele>117.4182129</ele>
        <time>2013-04-07T16:18:14Z</time>
      </trkpt>
      <trkpt lat="43.6196" lon="7.08746">
        <ele>118.3793945</ele>
        <time>2013-04-07T16:18:19Z</time>
      </trkpt>
      <trkpt lat="43.61959" lon="7.08724">
        <ele>118.3793945</ele>
        <time>2013-04-07T16:18:25Z</time>
      </trkpt>
      <trkpt lat="43.61959" lon="7.08704">
        <ele>117.8988037</ele>
        <time>2013-04-07T16:18:31Z</time>
      </trkpt>
      <trkpt lat="43.61959" lon="7.08685">
        <ele>118.8601074</ele>
        <time>2013-04-07T16:18:37Z</time>
      </trkpt>
      <trkpt lat="43.61959" lon="7.08669">
        <ele>118.8601074</ele>
        <time>2013-04-07T16:18:42Z</time>
      </trkpt>
      <trkpt lat="43.61959" lon="7.08649">
        <ele>117.8988037</ele>
        <time>2013-04-07T16:18:48Z</time>
      </trkpt>
      <trkpt lat="43.61959" lon="7.08629">
        <ele>116.9375</ele>
        <time>2013-04-07T16:18:54Z</time>
      </trkpt>
      <trkpt lat="43.61958" lon="7.08613">
        <ele>117.4182129</ele>
        <time>2013-04-07T16:18:59Z</time>
      </trkpt>
      <trkpt lat="43.61957" lon="7.08595">
        <ele>116.9375</ele>
        <time>2013-04-07T16:19:04Z</time>
      </trkpt>
      <trkpt lat="43.61956" lon="7.08586">
        <ele>117.8988037</ele>
        <time>2013-04-07T16:19:07Z</time>
      </trkpt>
      <trkpt lat="43.61955" lon="7.08572">
        <ele>117.8988037</ele>
        <time>2013-04-07T16:19:11Z</time>
      </trkpt>
      <trkpt lat="43.61957" lon="7.08551">
        <ele>117.8988037</ele>
        <time>2013-04-07T16:19:17Z</time>
      </trkpt>
      <trkpt lat="43.61957" lon="7.08527">
        <ele>117.8988037</ele>
        <time>2013-04-07T16:19:24Z</time>
      </trkpt>
      <trkpt lat="43.61957" lon="7.08512">
        <ele>118.3793945</ele>
        <time>2013-04-07T16:19:28Z</time>
      </trkpt>
      <trkpt lat="43.61956" lon="7.08497">
        <ele>118.8601074</ele>
        <time>2013-04-07T16:19:32Z</time>
      </trkpt>
      <trkpt lat="43.61956" lon="7.0848">
        <ele>120.302124</ele>
        <time>2013-04-07T16:19:37Z</time>
      </trkpt>
      <trkpt lat="43.61956" lon="7.0846">
        <ele>122.2247314</ele>
        <time>2013-04-07T16:19:42Z</time>
      </trkpt>
      <trkpt lat="43.61958" lon="7.08443">
        <ele>122.7054443</ele>
        <time>2013-04-07T16:19:47Z</time>
      </trkpt>
      <trkpt lat="43.6196" lon="7.08423">
        <ele>122.2247314</ele>
        <time>2013-04-07T16:19:53Z</time>
      </trkpt>
      <trkpt lat="43.61964" lon="7.08407">
        <ele>121.2635498</ele>
        <time>2013-04-07T16:19:58Z</time>
      </trkpt>
      <trkpt lat="43.61966" lon="7.08386">
        <ele>120.302124</ele>
        <time>2013-04-07T16:20:04Z</time>
      </trkpt>
      <trkpt lat="43.61969" lon="7.08365">
        <ele>119.8214111</ele>
        <time>2013-04-07T16:20:10Z</time>
      </trkpt>
      <trkpt lat="43.61971" lon="7.08343">
        <ele>119.8214111</ele>
        <time>2013-04-07T16:20:16Z</time>
      </trkpt>
      <trkpt lat="43.61972" lon="7.08339">
        <ele>120.302124</ele>
        <time>2013-04-07T16:20:17Z</time>
      </trkpt>
      <trkpt lat="43.61982" lon="7.08325">
        <ele>122.2247314</ele>
        <time>2013-04-07T16:20:23Z</time>
      </trkpt>
      <trkpt lat="43.61985" lon="7.08311">
        <ele>124.1473389</ele>
        <time>2013-04-07T16:20:28Z</time>
      </trkpt>
      <trkpt lat="43.6199" lon="7.08295">
        <ele>124.6280518</ele>
        <time>2013-04-07T16:20:33Z</time>
      </trkpt>
      <trkpt lat="43.61992" lon="7.08278">
        <ele>124.1473389</ele>
        <time>2013-04-07T16:20:38Z</time>
      </trkpt>
      <trkpt lat="43.61992" lon="7.08262">
        <ele>123.1861572</ele>
        <time>2013-04-07T16:20:43Z</time>
      </trkpt>
      <trkpt lat="43.61996" lon="7.08245">
        <ele>122.7054443</ele>
        <time>2013-04-07T16:20:48Z</time>
      </trkpt>
      <trkpt lat="43.61998" lon="7.08236">
        <ele>122.7054443</ele>
        <time>2013-04-07T16:20:51Z</time>
      </trkpt>
      <trkpt lat="43.62" lon="7.08222">
        <ele>122.7054443</ele>
        <time>2013-04-07T16:20:56Z</time>
      </trkpt>
      <trkpt lat="43.62006" lon="7.08212">
        <ele>124.1473389</ele>
        <time>2013-04-07T16:21:00Z</time>
      </trkpt>
      <trkpt lat="43.62009" lon="7.08201">
        <ele>126.0699463</ele>
        <time>2013-04-07T16:21:04Z</time>
      </trkpt>
      <trkpt lat="43.62012" lon="7.08187">
        <ele>127.9925537</ele>
        <time>2013-04-07T16:21:09Z</time>
      </trkpt>
      <trkpt lat="43.62015" lon="7.08182">
        <ele>128.4733887</ele>
        <time>2013-04-07T16:21:11Z</time>
      </trkpt>
      <trkpt lat="43.62014" lon="7.08163">
        <ele>132.3186035</ele>
        <time>2013-04-07T16:21:17Z</time>
      </trkpt>
      <trkpt lat="43.62015" lon="7.08147">
        <ele>135.6831055</ele>
        <time>2013-04-07T16:21:23Z</time>
      </trkpt>
      <trkpt lat="43.62016" lon="7.08137">
        <ele>137.605835</ele>
        <time>2013-04-07T16:21:27Z</time>
      </trkpt>
      <trkpt lat="43.62018" lon="7.0812">
        <ele>139.5284424</ele>
        <time>2013-04-07T16:21:33Z</time>
      </trkpt>
      <trkpt lat="43.62021" lon="7.08113">
        <ele>139.0478516</ele>
        <time>2013-04-07T16:21:36Z</time>
      </trkpt>
      <trkpt lat="43.62024" lon="7.08102">
        <ele>136.6446533</ele>
        <time>2013-04-07T16:21:41Z</time>
      </trkpt>
      <trkpt lat="43.6202" lon="7.08085">
        <ele>137.1252441</ele>
        <time>2013-04-07T16:21:46Z</time>
      </trkpt>
      <trkpt lat="43.62013" lon="7.08068">
        <ele>137.1252441</ele>
        <time>2013-04-07T16:21:52Z</time>
      </trkpt>
      <trkpt lat="43.62013" lon="7.08062">
        <ele>137.605835</ele>
        <time>2013-04-07T16:21:54Z</time>
      </trkpt>
      <trkpt lat="43.62007" lon="7.0805">
        <ele>139.0478516</ele>
        <time>2013-04-07T16:22:01Z</time>
      </trkpt>
      <trkpt lat="43.62003" lon="7.08045">
        <ele>140.0091553</ele>
        <time>2013-04-07T16:22:04Z</time>
      </trkpt>
      <trkpt lat="43.61993" lon="7.08038">
        <ele>142.8930664</ele>
        <time>2013-04-07T16:22:10Z</time>
      </trkpt>
      <trkpt lat="43.61983" lon="7.08037">
        <ele>142.8930664</ele>
        <time>2013-04-07T16:22:15Z</time>
      </trkpt>
      <trkpt lat="43.6198" lon="7.08031">
        <ele>139.5284424</ele>
        <time>2013-04-07T16:22:19Z</time>
      </trkpt>
      <trkpt lat="43.61987" lon="7.08012">
        <ele>138.5672607</ele>
        <time>2013-04-07T16:22:26Z</time>
      </trkpt>
      <trkpt lat="43.61992" lon="7.07993">
        <ele>139.5284424</ele>
        <time>2013-04-07T16:22:32Z</time>
      </trkpt>
      <trkpt lat="43.61996" lon="7.0798">
        <ele>140.0091553</ele>
        <time>2013-04-07T16:22:37Z</time>
      </trkpt>
    </trkseg>
  </trk>
</gpx>